Observation data for Lesley on 05/24/2020      Previous  Date  Next       Current Mesonet Observations  Soil Data  Daily Summary Page  Observations in Plain Language
KLE1 240500Z 20003KT 22/12 A2978 RMK A01 T02160123  RH  055%=      5-min Rain = 0
KLE1 240501Z 20003KT 22/12 A2978 RMK A01 T02160123  RH  055%=      5-min Rain = 0
KLE1 240502Z 20005KT 22/12 A2978 RMK A01 T02150122  RH  055%=      5-min Rain = 0
KLE1 240503Z 19005KT 22/12 A2978 RMK A01 T02150122  RH  055%=      5-min Rain = 0
KLE1 240504Z 19005KT 22/12 A2978 RMK A01 T02150121  RH  055%=      5-min Rain = 0
KLE1 240505Z 19004KT 22/12 A2978 RMK A01 T02150122  RH  055%=      5-min Rain = 0
KLE1 240506Z 19004KT 22/12 A2978 RMK A01 T02150121  RH  055%=      5-min Rain = 0
KLE1 240507Z 18003KT 22/12 A2978 RMK A01 T02150121  RH  055%=      5-min Rain = 0
KLE1 240508Z 18002KT 22/12 A2978 RMK A01 T02150121  RH  055%=      5-min Rain = 0
KLE1 240509Z 17002KT 22/12 A2978 RMK A01 T02150121  RH  055%=      5-min Rain = 0
KLE1 240510Z 17001KT 21/12 A2978 RMK A01 T02140121  RH  055%=      5-min Rain = 0
KLE1 240511Z 00000KT 21/12 A2978 RMK A01 T02140120  RH  055%=      5-min Rain = 0
KLE1 240512Z 00000KT 22/12 A2978 RMK A01 T02150120  RH  055%=      5-min Rain = 0
KLE1 240513Z 00000KT 22/12 A2978 RMK A01 T02150120  RH  055%=      5-min Rain = 0
KLE1 240514Z 00000KT 22/12 A2978 RMK A01 T02150119  RH  054%=      5-min Rain = 0
KLE1 240515Z 00000KT 22/12 A2978 RMK A01 T02160120  RH  054%=      5-min Rain = 0
KLE1 240516Z 00000KT 22/12 A2978 RMK A01 T02160120  RH  054%=      5-min Rain = 0
KLE1 240517Z 27001KT 22/12 A2978 RMK A01 T02160120  RH  054%=      5-min Rain = 0
KLE1 240518Z 27002KT 22/12 A2979 RMK A01 T02160119  RH  054%=      5-min Rain = 0
KLE1 240519Z 25001KT 22/12 A2979 RMK A01 T02160119  RH  054%=      5-min Rain = 0
KLE1 240520Z 24001KT 22/12 A2979 RMK A01 T02170120  RH  054%=      5-min Rain = 0
KLE1 240521Z 22001KT 22/12 A2979 RMK A01 T02170120  RH  054%=      5-min Rain = 0
KLE1 240522Z 21001KT 22/12 A2979 RMK A01 T02170120  RH  054%=      5-min Rain = 0
KLE1 240523Z 21001KT 22/12 A2979 RMK A01 T02170120  RH  054%=      5-min Rain = 0
KLE1 240524Z 21002KT 22/12 A2979 RMK A01 T02170120  RH  054%=      5-min Rain = 0
KLE1 240525Z 21001KT 22/12 A2979 RMK A01 T02180120  RH  054%=      5-min Rain = 0
KLE1 240526Z 21001KT 22/12 A2979 RMK A01 T02180120  RH  053%=      5-min Rain = 0
KLE1 240527Z 23002KT 22/12 A2979 RMK A01 T02190120  RH  053%=      5-min Rain = 0
KLE1 240528Z 23002KT 22/12 A2979 RMK A01 T02190120  RH  053%=      5-min Rain = 0
KLE1 240529Z 23001KT 22/12 A2979 RMK A01 T02190120  RH  053%=      5-min Rain = 0
KLE1 240530Z 23000KT 22/12 A2978 RMK A01 T02190120  RH  053%=      5-min Rain = 0
KLE1 240531Z 00000KT 22/12 A2978 RMK A01 T02190120  RH  053%=      5-min Rain = 0
KLE1 240532Z 00000KT 22/12 A2978 RMK A01 T02190120  RH  053%=      5-min Rain = 0
KLE1 240533Z 00000KT 22/12 A2978 RMK A01 T02190120  RH  053%=      5-min Rain = 0
KLE1 240534Z 00000KT 22/12 A2979 RMK A01 T02180120  RH  053%=      5-min Rain = 0
KLE1 240535Z 00000KT 22/12 A2979 RMK A01 T02180120  RH  053%=      5-min Rain = 0
KLE1 240536Z 00000KT 22/12 A2979 RMK A01 T02180120  RH  053%=      5-min Rain = 0
KLE1 240537Z 00000KT 22/12 A2979 RMK A01 T02180120  RH  054%=      5-min Rain = 0
KLE1 240538Z 23000KT 22/12 A2979 RMK A01 T02180120  RH  053%=      5-min Rain = 0
KLE1 240539Z 06002KT 22/12 A2979 RMK A01 T02180120  RH  053%=      5-min Rain = 0
KLE1 240540Z 07003KT 22/12 A2979 RMK A01 T02180121  RH  054%=      5-min Rain = 0
KLE1 240541Z 07003KT 22/13 A2979 RMK A01 T02180125  RH  056%=      5-min Rain = 0
KLE1 240542Z 07002KT 22/13 A2979 RMK A01 T02160127  RH  057%=      5-min Rain = 0
KLE1 240543Z 07002KT 22/13 A2979 RMK A01 T02150127  RH  057%=      5-min Rain = 0
KLE1 240544Z 06002KT 21/13 A2979 RMK A01 T02140127  RH  057%=      5-min Rain = 0
KLE1 240545Z 05002KT 21/13 A2979 RMK A01 T02130127  RH  058%=      5-min Rain = 0
KLE1 240546Z 06002KT 21/13 A2979 RMK A01 T02130127  RH  058%=      5-min Rain = 0
KLE1 240547Z 06002KT 21/13 A2979 RMK A01 T02120126  RH  058%=      5-min Rain = 0
KLE1 240548Z 09001KT 21/13 A2979 RMK A01 T02110126  RH  058%=      5-min Rain = 0
KLE1 240549Z 11000KT 21/13 A2979 RMK A01 T02100125  RH  058%=      5-min Rain = 0
KLE1 240550Z 14000KT 21/13 A2979 RMK A01 T02100125  RH  058%=      5-min Rain = 0
KLE1 240551Z 14001KT 21/12 A2979 RMK A01 T02090124  RH  058%=      5-min Rain = 0
KLE1 240552Z 11001KT 21/12 A2979 RMK A01 T02090123  RH  058%=      5-min Rain = 0
KLE1 240553Z 13001KT 21/12 A2979 RMK A01 T02090123  RH  058%=      5-min Rain = 0
KLE1 240554Z 17002KT 21/12 A2979 RMK A01 T02090122  RH  058%=      5-min Rain = 0
KLE1 240555Z 20003KT 21/12 A2979 RMK A01 T02090122  RH  058%=      5-min Rain = 0
KLE1 240556Z 21004KT 21/12 A2979 RMK A01 T02100123  RH  058%=      5-min Rain = 0
KLE1 240557Z 22005KT 21/12 A298 RMK A01 T02090124  RH  058%=      5-min Rain = 0
KLE1 240558Z 22005KT 21/12 A298 RMK A01 T02070124  RH  059%=      5-min Rain = 0
KLE1 240559Z 21004KT 21/13 A2979 RMK A01 T02050125  RH  060%=      5-min Rain = 0
KLE1 240600Z 20003KT 21/12 A2979 RMK A01 T02050124  RH  060%=      5-min Rain = 0
KLE1 240601Z 17002KT 20/12 A2979 RMK A01 T02040124  RH  060%=      5-min Rain = 0
KLE1 240602Z 17002KT 20/12 A2979 RMK A01 T02040123  RH  060%=      5-min Rain = 0
KLE1 240603Z 19003KT 20/12 A2979 RMK A01 T02040123  RH  060%=      5-min Rain = 0
KLE1 240604Z 20004KT 20/12 A2979 RMK A01 T02040122  RH  059%=      5-min Rain = 0
KLE1 240605Z 21005KT 21/12 A2979 RMK A01 T02050122  RH  059%=      5-min Rain = 0
KLE1 240606Z 21004KT 20/12 A2979 RMK A01 T02040121  RH  059%=      5-min Rain = 0
KLE1 240607Z 20003KT 20/12 A2979 RMK A01 T02030121  RH  059%=      5-min Rain = 0
KLE1 240608Z 19003KT 20/12 A2979 RMK A01 T02020120  RH  059%=      5-min Rain = 0
KLE1 240609Z 19004KT 20/12 A2979 RMK A01 T02020120  RH  059%=      5-min Rain = 0
KLE1 240610Z 19005KT 20/12 A2979 RMK A01 T02020120  RH  059%=      5-min Rain = 0
KLE1 240611Z 19005KT 20/12 A298 RMK A01 T02020120  RH  059%=      5-min Rain = 0
KLE1 240612Z 19005KT 20/12 A298 RMK A01 T02020121  RH  060%=      5-min Rain = 0
KLE1 240613Z 19004KT 20/12 A2979 RMK A01 T02020122  RH  060%=      5-min Rain = 0
KLE1 240614Z 20004KT 20/12 A298 RMK A01 T02020122  RH  060%=      5-min Rain = 0
KLE1 240615Z 21005KT 20/12 A298 RMK A01 T02010122  RH  060%=      5-min Rain = 0
KLE1 240616Z 22006KT 20/12 A298 RMK A01 T02000122  RH  061%=      5-min Rain = 0
KLE1 240617Z 22006KT 20/12 A298 RMK A01 T01990122  RH  061%=      5-min Rain = 0
KLE1 240618Z 22007KT 20/12 A298 RMK A01 T01970122  RH  062%=      5-min Rain = 0
KLE1 240619Z 22006KT 20/12 A298 RMK A01 T01960123  RH  063%=      5-min Rain = 0
KLE1 240620Z 21005KT 20/12 A298 RMK A01 T01950123  RH  063%=      5-min Rain = 0
KLE1 240621Z 20005KT 19/12 A298 RMK A01 T01940124  RH  064%=      5-min Rain = 0
KLE1 240622Z 20004KT 19/12 A298 RMK A01 T01940124  RH  064%=      5-min Rain = 0
KLE1 240623Z 20005KT 19/12 A298 RMK A01 T01940124  RH  064%=      5-min Rain = 0
KLE1 240624Z 20006KT 19/12 A298 RMK A01 T01940124  RH  064%=      5-min Rain = 0
KLE1 240625Z 20007KT 20/13 A298 RMK A01 T01950125  RH  064%=      5-min Rain = 0
KLE1 240626Z 20007KT 19/13 A298 RMK A01 T01940125  RH  064%=      5-min Rain = 0
KLE1 240627Z 18007KT 20/13 A298 RMK A01 T01950125  RH  064%=      5-min Rain = 0
KLE1 240628Z 18006KT 20/13 A298 RMK A01 T01950126  RH  064%=      5-min Rain = 0
KLE1 240629Z 17007KT 20/13 A298 RMK A01 T01950126  RH  064%=      5-min Rain = 0
KLE1 240630Z 17007KT 20/13 A298 RMK A01 T01950126  RH  064%=      5-min Rain = 0
KLE1 240631Z 16008KT 20/13 A298 RMK A01 T01950126  RH  064%=      5-min Rain = 0
KLE1 240632Z 17008KT 20/13 A298 RMK A01 T01960126  RH  064%=      5-min Rain = 0
KLE1 240633Z 17008KT 20/13 A298 RMK A01 T01950126  RH  064%=      5-min Rain = 0
KLE1 240634Z 17008KT 20/13 A298 RMK A01 T01950126  RH  064%=      5-min Rain = 0
KLE1 240635Z 17008KT 20/13 A298 RMK A01 T01950126  RH  064%=      5-min Rain = 0
KLE1 240636Z 18007KT 20/13 A298 RMK A01 T01950126  RH  064%=      5-min Rain = 0
KLE1 240637Z 18007KT 20/13 A298 RMK A01 T01950126  RH  064%=      5-min Rain = 0
KLE1 240638Z 17008KT 19/13 A298 RMK A01 T01940126  RH  064%=      5-min Rain = 0
KLE1 240639Z 16008KT 19/13 A298 RMK A01 T01940126  RH  064%=      5-min Rain = 0
KLE1 240640Z 16007KT 19/13 A298 RMK A01 T01940126  RH  065%=      5-min Rain = 0
KLE1 240641Z 15007KT 19/13 A298 RMK A01 T01940126  RH  065%=      5-min Rain = 0
KLE1 240642Z 16008KT 19/13 A2981 RMK A01 T01940126  RH  065%=      5-min Rain = 0
KLE1 240643Z 16008KT 19/13 A2981 RMK A01 T01940127  RH  065%=      5-min Rain = 0
KLE1 240644Z 16008KT 19/13 A2981 RMK A01 T01940127  RH  065%=      5-min Rain = 0
KLE1 240645Z 16007KT 19/13 A2981 RMK A01 T01930127  RH  065%=      5-min Rain = 0
KLE1 240646Z 16007KT 19/13 A2981 RMK A01 T01930127  RH  065%=      5-min Rain = 0
KLE1 240647Z 16007KT 19/13 A2981 RMK A01 T01930127  RH  065%=      5-min Rain = 0
KLE1 240648Z 16007KT 19/13 A2981 RMK A01 T01930127  RH  065%=      5-min Rain = 0
KLE1 240649Z 17008KT 19/13 A2981 RMK A01 T01930127  RH  065%=      5-min Rain = 0
KLE1 240650Z 17008KT 19/13 A2981 RMK A01 T01930127  RH  066%=      5-min Rain = 0
KLE1 240651Z 16008KT 19/13 A2981 RMK A01 T01930127  RH  066%=      5-min Rain = 0
KLE1 240652Z 16007KT 19/13 A2981 RMK A01 T01920127  RH  066%=      5-min Rain = 0
KLE1 240653Z 15007KT 19/13 A2982 RMK A01 T01920127  RH  066%=      5-min Rain = 0
KLE1 240654Z 15008KT 19/13 A2982 RMK A01 T01920127  RH  066%=      5-min Rain = 0
KLE1 240655Z 15008KT 19/13 A2982 RMK A01 T01920127  RH  066%=      5-min Rain = 0
KLE1 240656Z 15007KT 19/13 A2982 RMK A01 T01920127  RH  066%=      5-min Rain = 0
KLE1 240657Z 15007KT 19/13 A2982 RMK A01 T01920127  RH  066%=      5-min Rain = 0
KLE1 240658Z 15007KT 19/13 A2982 RMK A01 T01920127  RH  066%=      5-min Rain = 0
KLE1 240659Z 15007KT 19/13 A2982 RMK A01 T01920127  RH  066%=      5-min Rain = 0
KLE1 240700Z 15007KT 19/13 A2982 RMK A01 T01920128  RH  066%=      5-min Rain = 0
KLE1 240701Z 15007KT 19/13 A2982 RMK A01 T01910128  RH  066%=      5-min Rain = 0
KLE1 240702Z 15007KT 19/13 A2981 RMK A01 T01910128  RH  067%=      5-min Rain = 0
KLE1 240703Z 14006KT 19/13 A2982 RMK A01 T01910128  RH  067%=      5-min Rain = 0
KLE1 240704Z 14006KT 19/13 A2982 RMK A01 T01910128  RH  067%=      5-min Rain = 0
KLE1 240705Z 15006KT 19/13 A2982 RMK A01 T01910128  RH  067%=      5-min Rain = 0
KLE1 240706Z 15006KT 19/13 A2982 RMK A01 T01900128  RH  067%=      5-min Rain = 0
KLE1 240707Z 15006KT 19/13 A2982 RMK A01 T01890127  RH  067%=      5-min Rain = 0
KLE1 240708Z 14006KT 19/13 A2982 RMK A01 T01890127  RH  067%=      5-min Rain = 0
KLE1 240709Z 13006KT 19/13 A2982 RMK A01 T01890128  RH  068%=      5-min Rain = 0
KLE1 240710Z 13007KT 19/13 A2982 RMK A01 T01890128  RH  068%=      5-min Rain = 0
KLE1 240711Z 13007KT 19/13 A2982 RMK A01 T01880129  RH  069%=      5-min Rain = 0
KLE1 240712Z 14008KT 19/13 A2982 RMK A01 T01880130  RH  069%=      5-min Rain = 0
KLE1 240713Z 13008KT 19/13 A2982 RMK A01 T01880131  RH  069%=      5-min Rain = 0
KLE1 240714Z 13008KT 19/13 A2982 RMK A01 T01880131  RH  070%=      5-min Rain = 0
KLE1 240715Z 13008KT 19/13 A2982 RMK A01 T01880131  RH  070%=      5-min Rain = 0
KLE1 240716Z 13008KT 19/13 A2982 RMK A01 T01880132  RH  070%=      5-min Rain = 0
KLE1 240717Z 13008KT 19/13 A2982 RMK A01 T01880132  RH  070%=      5-min Rain = 0
KLE1 240718Z 14007KT 19/13 A2982 RMK A01 T01880133  RH  070%=      5-min Rain = 0
KLE1 240719Z 14007KT 19/13 A2982 RMK A01 T01880133  RH  070%=      5-min Rain = 0
KLE1 240720Z 14007KT 19/13 A2982 RMK A01 T01880133  RH  070%=      5-min Rain = 0
KLE1 240721Z 14007KT 19/13 A2982 RMK A01 T01890133  RH  070%=      5-min Rain = 0
KLE1 240722Z 14007KT 19/13 A2982 RMK A01 T01880132  RH  070%=      5-min Rain = 0
KLE1 240723Z 14008KT 19/13 A2982 RMK A01 T01880132  RH  070%=      5-min Rain = 0
KLE1 240724Z 15008KT 19/13 A2982 RMK A01 T01880132  RH  070%=      5-min Rain = 0
KLE1 240725Z 14008KT 19/13 A2982 RMK A01 T01880132  RH  070%=      5-min Rain = 0
KLE1 240726Z 14008KT 19/13 A2982 RMK A01 T01880132  RH  070%=      5-min Rain = 0
KLE1 240727Z 13008KT 19/13 A2982 RMK A01 T01870132  RH  070%=      5-min Rain = 0
KLE1 240728Z 12008KT 19/13 A2982 RMK A01 T01880132  RH  070%=      5-min Rain = 0
KLE1 240729Z 11008KT 19/13 A2982 RMK A01 T01890132  RH  070%=      5-min Rain = 0
KLE1 240730Z 11007KT 19/13 A2982 RMK A01 T01890133  RH  070%=      5-min Rain = 0
KLE1 240731Z 12006KT 19/13 A2982 RMK A01 T01890133  RH  070%=      5-min Rain = 0
KLE1 240732Z 13006KT 19/13 A2982 RMK A01 T01890133  RH  070%=      5-min Rain = 0
KLE1 240733Z 14005KT 19/13 A2983 RMK A01 T01880133  RH  070%=      5-min Rain = 0
KLE1 240734Z 18005KT 19/13 A2983 RMK A01 T01870133  RH  070%=      5-min Rain = 0
KLE1 240735Z 18006KT 19/13 A2983 RMK A01 T01850131  RH  071%=      5-min Rain = 0
KLE1 240736Z 15007KT 19/13 A2983 RMK A01 T01850130  RH  070%=      5-min Rain = 0
KLE1 240737Z 14007KT 19/13 A2983 RMK A01 T01870130  RH  070%=      5-min Rain = 0
KLE1 240738Z 14006KT 19/13 A2983 RMK A01 T01880130  RH  069%=      5-min Rain = 0
KLE1 240739Z 14006KT 19/13 A2983 RMK A01 T01880129  RH  069%=      5-min Rain = 0
KLE1 240740Z 15005KT 19/13 A2982 RMK A01 T01880129  RH  069%=      5-min Rain = 0
KLE1 240741Z 16005KT 19/13 A2982 RMK A01 T01880129  RH  068%=      5-min Rain = 0
KLE1 240742Z 15006KT 19/13 A2982 RMK A01 T01880129  RH  068%=      5-min Rain = 0
KLE1 240743Z 15006KT 19/13 A2982 RMK A01 T01870129  RH  069%=      5-min Rain = 0
KLE1 240744Z 15006KT 19/13 A2982 RMK A01 T01870129  RH  069%=      5-min Rain = 0
KLE1 240745Z 14006KT 19/13 A2982 RMK A01 T01870129  RH  069%=      5-min Rain = 0
KLE1 240746Z 15007KT 19/13 A2982 RMK A01 T01870129  RH  069%=      5-min Rain = 0
KLE1 240747Z 16007KT 19/13 A2982 RMK A01 T01870129  RH  069%=      5-min Rain = 0
KLE1 240748Z 16007KT 19/13 A2982 RMK A01 T01860129  RH  069%=      5-min Rain = 0
KLE1 240749Z 16007KT 19/13 A2982 RMK A01 T01860129  RH  069%=      5-min Rain = 0
KLE1 240750Z 15006KT 19/13 A2982 RMK A01 T01850128  RH  069%=      5-min Rain = 0
KLE1 240751Z 14006KT 19/13 A2982 RMK A01 T01850128  RH  069%=      5-min Rain = 0
KLE1 240752Z 15007KT 19/13 A2982 RMK A01 T01850128  RH  069%=      5-min Rain = 0
KLE1 240753Z 16008KT 19/13 A2982 RMK A01 T01850128  RH  069%=      5-min Rain = 0
KLE1 240754Z 14008KT 19/13 A2982 RMK A01 T01850127  RH  069%=      5-min Rain = 0
KLE1 240755Z 12007KT 19/13 A2981 RMK A01 T01850127  RH  069%=      5-min Rain = 0
KLE1 240756Z 12006KT 19/13 A2981 RMK A01 T01860127  RH  069%=      5-min Rain = 0
KLE1 240757Z 14006KT 19/13 A2981 RMK A01 T01870128  RH  068%=      5-min Rain = 0
KLE1 240758Z 17005KT 19/13 A2982 RMK A01 T01880128  RH  068%=      5-min Rain = 0
KLE1 240759Z 19006KT 19/13 A2982 RMK A01 T01870128  RH  068%=      5-min Rain = 0
KLE1 240800Z 18006KT 19/13 A2982 RMK A01 T01850127  RH  069%=      5-min Rain = 0
KLE1 240801Z 15006KT 19/13 A2981 RMK A01 T01850127  RH  069%=      5-min Rain = 0
KLE1 240802Z 14005KT 19/13 A2981 RMK A01 T01850127  RH  069%=      5-min Rain = 0
KLE1 240803Z 14005KT 19/13 A2981 RMK A01 T01850127  RH  069%=      5-min Rain = 0
KLE1 240804Z 15004KT 19/13 A2981 RMK A01 T01860127  RH  069%=      5-min Rain = 0
KLE1 240805Z 17004KT 19/13 A2981 RMK A01 T01860126  RH  068%=      5-min Rain = 0
KLE1 240806Z 18004KT 19/13 A2982 RMK A01 T01860127  RH  068%=      5-min Rain = 0
KLE1 240807Z 19004KT 19/13 A2982 RMK A01 T01850127  RH  069%=      5-min Rain = 0
KLE1 240808Z 18004KT 18/13 A2982 RMK A01 T01840126  RH  069%=      5-min Rain = 0
KLE1 240809Z 16003KT 18/13 A2981 RMK A01 T01830126  RH  069%=      5-min Rain = 0
KLE1 240810Z 16003KT 18/13 A2981 RMK A01 T01830126  RH  070%=      5-min Rain = 0
KLE1 240811Z 15003KT 18/13 A2981 RMK A01 T01830126  RH  069%=      5-min Rain = 0
KLE1 240812Z 15002KT 18/13 A2981 RMK A01 T01830126  RH  069%=      5-min Rain = 0
KLE1 240813Z 15002KT 18/13 A2981 RMK A01 T01840126  RH  069%=      5-min Rain = 0
KLE1 240814Z 15002KT 19/13 A2982 RMK A01 T01850126  RH  068%=      5-min Rain = 0
KLE1 240815Z 17002KT 19/13 A2982 RMK A01 T01860126  RH  068%=      5-min Rain = 0
KLE1 240816Z 18003KT 19/13 A2982 RMK A01 T01870126  RH  068%=      5-min Rain = 0
KLE1 240817Z 17003KT 19/13 A2982 RMK A01 T01870126  RH  067%=      5-min Rain = 0
KLE1 240818Z 15003KT 19/13 A2981 RMK A01 T01880126  RH  067%=      5-min Rain = 0
KLE1 240819Z 14003KT 19/13 A2981 RMK A01 T01880126  RH  067%=      5-min Rain = 0
KLE1 240820Z 13003KT 19/13 A2981 RMK A01 T01890126  RH  067%=      5-min Rain = 0
KLE1 240821Z 14003KT 19/13 A2981 RMK A01 T01890126  RH  067%=      5-min Rain = 0
KLE1 240822Z 15003KT 19/13 A2981 RMK A01 T01900126  RH  066%=      5-min Rain = 0
KLE1 240823Z 16003KT 19/13 A2981 RMK A01 T01900126  RH  066%=      5-min Rain = 0
KLE1 240824Z 17003KT 19/13 A2981 RMK A01 T01900126  RH  066%=      5-min Rain = 0
KLE1 240825Z 16003KT 19/13 A2981 RMK A01 T01900126  RH  066%=      5-min Rain = 0
KLE1 240826Z 14003KT 19/13 A2981 RMK A01 T01900126  RH  066%=      5-min Rain = 0
KLE1 240827Z 13004KT 19/13 A2981 RMK A01 T01900126  RH  066%=      5-min Rain = 0
KLE1 240828Z 13004KT 19/13 A2981 RMK A01 T01900126  RH  066%=      5-min Rain = 0
KLE1 240829Z 12003KT 19/13 A2981 RMK A01 T01900126  RH  067%=      5-min Rain = 0
KLE1 240830Z 12003KT 19/13 A2981 RMK A01 T01890127  RH  067%=      5-min Rain = 0
KLE1 240831Z 12003KT 19/13 A2981 RMK A01 T01880127  RH  067%=      5-min Rain = 0
KLE1 240832Z 12003KT 19/13 A2981 RMK A01 T01880127  RH  068%=      5-min Rain = 0
KLE1 240833Z 12003KT 19/13 A2981 RMK A01 T01870127  RH  068%=      5-min Rain = 0
KLE1 240834Z 12003KT 19/13 A2981 RMK A01 T01870128  RH  068%=      5-min Rain = 0
KLE1 240835Z 10003KT 19/13 A2981 RMK A01 T01870130  RH  069%=      5-min Rain = 0
KLE1 240836Z 09003KT 19/13 A2981 RMK A01 T01870130  RH  070%=      5-min Rain = 0
KLE1 240837Z 09003KT 19/13 A2981 RMK A01 T01860131  RH  070%=      5-min Rain = 0
KLE1 240838Z 10002KT 19/13 A2982 RMK A01 T01850131  RH  071%=      5-min Rain = 0
KLE1 240839Z 10002KT 19/13 A2982 RMK A01 T01850131  RH  071%=      5-min Rain = 0
KLE1 240840Z 09003KT 19/13 A2981 RMK A01 T01850130  RH  071%=      5-min Rain = 0
KLE1 240841Z 09003KT 19/13 A2981 RMK A01 T01850130  RH  071%=      5-min Rain = 0
KLE1 240842Z 10002KT 19/13 A2982 RMK A01 T01850130  RH  070%=      5-min Rain = 0
KLE1 240843Z 12002KT 19/13 A2982 RMK A01 T01850131  RH  071%=      5-min Rain = 0
KLE1 240844Z 13002KT 19/13 A2982 RMK A01 T01850131  RH  071%=      5-min Rain = 0
KLE1 240845Z 12002KT 18/13 A2982 RMK A01 T01840130  RH  071%=      5-min Rain = 0
KLE1 240846Z 11002KT 18/13 A2982 RMK A01 T01840129  RH  070%=      5-min Rain = 0
KLE1 240847Z 10003KT 19/13 A2982 RMK A01 T01850129  RH  070%=      5-min Rain = 0
KLE1 240848Z 09002KT 19/13 A2982 RMK A01 T01860130  RH  070%=      5-min Rain = 0
KLE1 240849Z 08002KT 19/13 A2982 RMK A01 T01860129  RH  070%=      5-min Rain = 0
KLE1 240850Z 08003KT 19/13 A2982 RMK A01 T01860129  RH  070%=      5-min Rain = 0
KLE1 240851Z 07003KT 19/13 A2982 RMK A01 T01860129  RH  069%=      5-min Rain = 0
KLE1 240852Z 06003KT 19/13 A2982 RMK A01 T01850129  RH  069%=      5-min Rain = 0
KLE1 240853Z 07002KT 19/13 A2982 RMK A01 T01850129  RH  070%=      5-min Rain = 0
KLE1 240854Z 09002KT 18/13 A2982 RMK A01 T01840129  RH  070%=      5-min Rain = 0
KLE1 240855Z 09002KT 18/13 A2982 RMK A01 T01830129  RH  071%=      5-min Rain = 0
KLE1 240856Z 08002KT 18/13 A2982 RMK A01 T01830129  RH  070%=      5-min Rain = 0
KLE1 240857Z 09002KT 18/13 A2982 RMK A01 T01840128  RH  070%=      5-min Rain = 0
KLE1 240858Z 09002KT 18/13 A2982 RMK A01 T01840128  RH  070%=      5-min Rain = 0
KLE1 240859Z 10002KT 18/13 A2982 RMK A01 T01840128  RH  070%=      5-min Rain = 0
KLE1 240900Z 08003KT 18/13 A2982 RMK A01 T01840127  RH  070%=      5-min Rain = 0
KLE1 240901Z 07003KT 18/13 A2982 RMK A01 T01840128  RH  070%=      5-min Rain = 0
KLE1 240902Z 07003KT 18/13 A2982 RMK A01 T01840128  RH  069%=      5-min Rain = 0
KLE1 240903Z 08003KT 18/13 A2982 RMK A01 T01840128  RH  069%=      5-min Rain = 0
KLE1 240904Z 08003KT 19/13 A2982 RMK A01 T01850128  RH  069%=      5-min Rain = 0
KLE1 240905Z 07003KT 19/13 A2982 RMK A01 T01850128  RH  069%=      5-min Rain = 0
KLE1 240906Z 08003KT 19/13 A2982 RMK A01 T01850128  RH  070%=      5-min Rain = 0
KLE1 240907Z 07002KT 18/13 A2982 RMK A01 T01840128  RH  070%=      5-min Rain = 0
KLE1 240908Z 08003KT 18/13 A2982 RMK A01 T01840128  RH  070%=      5-min Rain = 0
KLE1 240909Z 08003KT 18/13 A2982 RMK A01 T01840128  RH  070%=      5-min Rain = 0
KLE1 240910Z 08003KT 18/13 A2982 RMK A01 T01840128  RH  070%=      5-min Rain = 0
KLE1 240911Z 09002KT 18/13 A2982 RMK A01 T01840129  RH  070%=      5-min Rain = 0
KLE1 240912Z 11002KT 18/13 A2982 RMK A01 T01830128  RH  070%=      5-min Rain = 0
KLE1 240913Z 12002KT 18/13 A2982 RMK A01 T01830127  RH  070%=      5-min Rain = 0
KLE1 240914Z 11002KT 18/13 A2982 RMK A01 T01830127  RH  070%=      5-min Rain = 0
KLE1 240915Z 11003KT 18/13 A2982 RMK A01 T01830127  RH  070%=      5-min Rain = 0
KLE1 240916Z 12003KT 18/13 A2982 RMK A01 T01830126  RH  069%=      5-min Rain = 0
KLE1 240917Z 13003KT 18/13 A2983 RMK A01 T01840127  RH  069%=      5-min Rain = 0
KLE1 240918Z 13003KT 18/13 A2983 RMK A01 T01840126  RH  069%=      5-min Rain = 0
KLE1 240919Z 12002KT 18/13 A2983 RMK A01 T01840126  RH  069%=      5-min Rain = 0
KLE1 240920Z 11002KT 18/13 A2983 RMK A01 T01840126  RH  069%=      5-min Rain = 0
KLE1 240921Z 10002KT 18/13 A2982 RMK A01 T01840126  RH  069%=      5-min Rain = 0
KLE1 240922Z 09002KT 18/13 A2982 RMK A01 T01840127  RH  069%=      5-min Rain = 0
KLE1 240923Z 09003KT 18/13 A2982 RMK A01 T01840127  RH  070%=      5-min Rain = 0
KLE1 240924Z 08004KT 18/13 A2982 RMK A01 T01830127  RH  070%=      5-min Rain = 0
KLE1 240925Z 08004KT 18/13 A2982 RMK A01 T01830128  RH  070%=      5-min Rain = 0
KLE1 240926Z 08004KT 18/13 A2982 RMK A01 T01810128  RH  071%=      5-min Rain = 0
KLE1 240927Z 07003KT 18/13 A2982 RMK A01 T01800128  RH  072%=      5-min Rain = 0
KLE1 240928Z 06003KT 18/13 A2982 RMK A01 T01790128  RH  072%=      5-min Rain = 0
KLE1 240929Z 07003KT 18/13 A2982 RMK A01 T01780129  RH  073%=      5-min Rain = 0
KLE1 240930Z 08004KT 18/13 A2983 RMK A01 T01780128  RH  073%=      5-min Rain = 0
KLE1 240931Z 09004KT 18/13 A2983 RMK A01 T01780129  RH  073%=      5-min Rain = 0
KLE1 240932Z 09004KT 18/13 A2983 RMK A01 T01780129  RH  073%=      5-min Rain = 0
KLE1 240933Z 09003KT 18/13 A2983 RMK A01 T01770129  RH  073%=      5-min Rain = 0
KLE1 240934Z 09004KT 18/13 A2983 RMK A01 T01770129  RH  073%=      5-min Rain = 0
KLE1 240935Z 09004KT 18/13 A2983 RMK A01 T01760128  RH  074%=      5-min Rain = 0
KLE1 240936Z 10004KT 18/13 A2983 RMK A01 T01760128  RH  074%=      5-min Rain = 0
KLE1 240937Z 09004KT 18/13 A2983 RMK A01 T01760128  RH  074%=      5-min Rain = 0
KLE1 240938Z 10005KT 18/13 A2983 RMK A01 T01750128  RH  074%=      5-min Rain = 0
KLE1 240939Z 11005KT 18/13 A2983 RMK A01 T01750128  RH  074%=      5-min Rain = 0
KLE1 240940Z 11005KT 18/13 A2983 RMK A01 T01750128  RH  074%=      5-min Rain = 0
KLE1 240941Z 11005KT 17/13 A2983 RMK A01 T01740128  RH  074%=      5-min Rain = 0
KLE1 240942Z 11005KT 17/13 A2983 RMK A01 T01740128  RH  074%=      5-min Rain = 0
KLE1 240943Z 11005KT 17/13 A2983 RMK A01 T01730128  RH  074%=      5-min Rain = 0
KLE1 240944Z 12005KT 17/13 A2983 RMK A01 T01730127  RH  074%=      5-min Rain = 0
KLE1 240945Z 12005KT 17/13 A2983 RMK A01 T01740128  RH  074%=      5-min Rain = 0
KLE1 240946Z 11005KT 17/13 A2982 RMK A01 T01740128  RH  074%=      5-min Rain = 0
KLE1 240947Z 10005KT 17/13 A2982 RMK A01 T01740128  RH  074%=      5-min Rain = 0
KLE1 240948Z 11005KT 17/13 A2982 RMK A01 T01740127  RH  074%=      5-min Rain = 0
KLE1 240949Z 12005KT 17/13 A2982 RMK A01 T01740128  RH  074%=      5-min Rain = 0
KLE1 240950Z 12005KT 18/13 A2982 RMK A01 T01750127  RH  073%=      5-min Rain = 0
KLE1 240951Z 11005KT 18/13 A2982 RMK A01 T01760127  RH  073%=      5-min Rain = 0
KLE1 240952Z 11005KT 18/13 A2982 RMK A01 T01760127  RH  073%=      5-min Rain = 0
KLE1 240953Z 12005KT 18/13 A2982 RMK A01 T01760127  RH  073%=      5-min Rain = 0
KLE1 240954Z 12006KT 18/13 A2982 RMK A01 T01770127  RH  073%=      5-min Rain = 0
KLE1 240955Z 12006KT 18/13 A2982 RMK A01 T01770128  RH  073%=      5-min Rain = 0
KLE1 240956Z 12006KT 18/13 A2982 RMK A01 T01770128  RH  073%=      5-min Rain = 0
KLE1 240957Z 12007KT 18/13 A2982 RMK A01 T01770128  RH  073%=      5-min Rain = 0
KLE1 240958Z 12007KT 18/13 A2982 RMK A01 T01770128  RH  073%=      5-min Rain = 0
KLE1 240959Z 12007KT 18/13 A2982 RMK A01 T01770128  RH  073%=      5-min Rain = 0
KLE1 241000Z 12007KT 18/13 A2982 RMK A01 T01770129  RH  074%=      5-min Rain = 0
KLE1 241001Z 11007KT 18/13 A2982 RMK A01 T01760129  RH  074%=      5-min Rain = 0
KLE1 241002Z 11007KT 18/13 A2982 RMK A01 T01760129  RH  074%=      5-min Rain = 0
KLE1 241003Z 11006KT 18/13 A2982 RMK A01 T01760129  RH  074%=      5-min Rain = 0
KLE1 241004Z 10006KT 18/13 A2981 RMK A01 T01750129  RH  074%=      5-min Rain = 0
KLE1 241005Z 10006KT 18/13 A2981 RMK A01 T01750129  RH  075%=      5-min Rain = 0
KLE1 241006Z 10006KT 17/13 A2982 RMK A01 T01740129  RH  075%=      5-min Rain = 0
KLE1 241007Z 10006KT 17/13 A2981 RMK A01 T01740129  RH  075%=      5-min Rain = 0
KLE1 241008Z 10006KT 17/13 A2982 RMK A01 T01740129  RH  075%=      5-min Rain = 0
KLE1 241009Z 09005KT 17/13 A2981 RMK A01 T01730129  RH  075%=      5-min Rain = 0
KLE1 241010Z 10005KT 17/13 A2982 RMK A01 T01730129  RH  076%=      5-min Rain = 0
KLE1 241011Z 10005KT 17/13 A2982 RMK A01 T01720129  RH  076%=      5-min Rain = 0
KLE1 241012Z 10004KT 17/13 A2982 RMK A01 T01730129  RH  075%=      5-min Rain = 0
KLE1 241013Z 10004KT 17/13 A2982 RMK A01 T01720128  RH  075%=      5-min Rain = 0
KLE1 241014Z 10004KT 17/13 A2982 RMK A01 T01730128  RH  075%=      5-min Rain = 0
KLE1 241015Z 11004KT 17/13 A2982 RMK A01 T01720128  RH  075%=      5-min Rain = 0
KLE1 241016Z 11005KT 17/13 A2982 RMK A01 T01720127  RH  075%=      5-min Rain = 0
KLE1 241017Z 11006KT 17/13 A2981 RMK A01 T01730128  RH  075%=      5-min Rain = 0
KLE1 241018Z 11006KT 17/13 A2981 RMK A01 T01740128  RH  075%=      5-min Rain = 0
KLE1 241019Z 12005KT 17/13 A2981 RMK A01 T01730128  RH  075%=      5-min Rain = 0
KLE1 241020Z 13004KT 17/13 A2982 RMK A01 T01730128  RH  075%=      5-min Rain = 0
KLE1 241021Z 14004KT 17/13 A2982 RMK A01 T01740129  RH  075%=      5-min Rain = 0
KLE1 241022Z 13004KT 17/13 A2982 RMK A01 T01730129  RH  075%=      5-min Rain = 0
KLE1 241023Z 12006KT 17/13 A2982 RMK A01 T01730128  RH  075%=      5-min Rain = 0
KLE1 241024Z 12007KT 17/13 A2981 RMK A01 T01740129  RH  075%=      5-min Rain = 0
KLE1 241025Z 12007KT 17/13 A2981 RMK A01 T01740129  RH  075%=      5-min Rain = 0
KLE1 241026Z 12006KT 17/13 A2981 RMK A01 T01740129  RH  075%=      5-min Rain = 0
KLE1 241027Z 12005KT 17/13 A2981 RMK A01 T01740130  RH  075%=      5-min Rain = 0
KLE1 241028Z 11005KT 17/13 A2981 RMK A01 T01740130  RH  075%=      5-min Rain = 0
KLE1 241029Z 11005KT 17/13 A2981 RMK A01 T01740130  RH  075%=      5-min Rain = 0
KLE1 241030Z 11005KT 17/13 A2981 RMK A01 T01740130  RH  076%=      5-min Rain = 0
KLE1 241031Z 10006KT 17/13 A2981 RMK A01 T01730130  RH  076%=      5-min Rain = 0
KLE1 241032Z 11006KT 17/13 A2981 RMK A01 T01730130  RH  076%=      5-min Rain = 0
KLE1 241033Z 11005KT 17/13 A2981 RMK A01 T01730131  RH  076%=      5-min Rain = 0
KLE1 241034Z 11005KT 17/13 A2981 RMK A01 T01720130  RH  076%=      5-min Rain = 0
KLE1 241035Z 11006KT 17/13 A2981 RMK A01 T01720130  RH  076%=      5-min Rain = 0
KLE1 241036Z 11007KT 17/13 A2981 RMK A01 T01720130  RH  076%=      5-min Rain = 0
KLE1 241037Z 11006KT 17/13 A2981 RMK A01 T01720130  RH  076%=      5-min Rain = 0
KLE1 241038Z 11005KT 17/13 A2981 RMK A01 T01720130  RH  076%=      5-min Rain = 0
KLE1 241039Z 12005KT 17/13 A2981 RMK A01 T01720130  RH  076%=      5-min Rain = 0
KLE1 241040Z 12005KT 17/13 A2981 RMK A01 T01720130  RH  076%=      5-min Rain = 0
KLE1 241041Z 12005KT 17/13 A2981 RMK A01 T01720129  RH  076%=      5-min Rain = 0
KLE1 241042Z 11006KT 17/13 A2981 RMK A01 T01720129  RH  076%=      5-min Rain = 0
KLE1 241043Z 11005KT 17/13 A2981 RMK A01 T01720129  RH  076%=      5-min Rain = 0
KLE1 241044Z 11005KT 17/13 A2981 RMK A01 T01720129  RH  076%=      5-min Rain = 0
KLE1 241045Z 11005KT 17/13 A2981 RMK A01 T01720129  RH  076%=      5-min Rain = 0
KLE1 241046Z 11005KT 17/13 A2981 RMK A01 T01710129  RH  076%=      5-min Rain = 0
KLE1 241047Z 11005KT 17/13 A2981 RMK A01 T01720129  RH  076%=      5-min Rain = 0
KLE1 241048Z 11005KT 17/13 A2981 RMK A01 T01720129  RH  076%=      5-min Rain = 0
KLE1 241049Z 11005KT 17/13 A2981 RMK A01 T01720128  RH  076%=      5-min Rain = 0
KLE1 241050Z 11005KT 17/13 A2981 RMK A01 T01720129  RH  076%=      5-min Rain = 0
KLE1 241051Z 11005KT 17/13 A2981 RMK A01 T01720129  RH  076%=      5-min Rain = 0
KLE1 241052Z 11006KT 17/13 A2981 RMK A01 T01720129  RH  076%=      5-min Rain = 0
KLE1 241053Z 11006KT 17/13 A2981 RMK A01 T01720129  RH  076%=      5-min Rain = 0
KLE1 241054Z 11006KT 17/13 A2981 RMK A01 T01720128  RH  076%=      5-min Rain = 0
KLE1 241055Z 11006KT 17/13 A2981 RMK A01 T01720128  RH  076%=      5-min Rain = 0
KLE1 241056Z 11006KT 17/13 A2981 RMK A01 T01710128  RH  076%=      5-min Rain = 0
KLE1 241057Z 11006KT 17/13 A2981 RMK A01 T01710129  RH  076%=      5-min Rain = 0
KLE1 241058Z 12006KT 17/13 A2981 RMK A01 T01710129  RH  076%=      5-min Rain = 0
KLE1 241059Z 12006KT 17/13 A2981 RMK A01 T01710129  RH  076%=      5-min Rain = 0
KLE1 241100Z 12006KT 17/13 A2981 RMK A01 T01710129  RH  076%=      5-min Rain = 0
KLE1 241101Z 12006KT 17/13 A2981 RMK A01 T01710129  RH  076%=      5-min Rain = 0
KLE1 241102Z 12006KT 17/13 A2981 RMK A01 T01710129  RH  076%=      5-min Rain = 0
KLE1 241103Z 12006KT 17/13 A2981 RMK A01 T01710129  RH  076%=      5-min Rain = 0
KLE1 241104Z 12006KT 17/13 A2982 RMK A01 T01710129  RH  077%=      5-min Rain = 0
KLE1 241105Z 12006KT 17/13 A2982 RMK A01 T01710130  RH  077%=      5-min Rain = 0
KLE1 241106Z 12006KT 17/13 A2982 RMK A01 T01700130  RH  077%=      5-min Rain = 0
KLE1 241107Z 12006KT 17/13 A2982 RMK A01 T01700130  RH  077%=      5-min Rain = 0
KLE1 241108Z 12006KT 17/13 A2982 RMK A01 T01700130  RH  077%=      5-min Rain = 0
KLE1 241109Z 12005KT 17/13 A2982 RMK A01 T01700129  RH  077%=      5-min Rain = 0
KLE1 241110Z 12005KT 17/13 A2982 RMK A01 T01700129  RH  077%=      5-min Rain = 0
KLE1 241111Z 12006KT 17/13 A2981 RMK A01 T01690129  RH  077%=      5-min Rain = 0
KLE1 241112Z 12006KT 17/13 A2981 RMK A01 T01690129  RH  077%=      5-min Rain = 0
KLE1 241113Z 11006KT 17/13 A2981 RMK A01 T01690129  RH  077%=      5-min Rain = 0
KLE1 241114Z 11005KT 17/13 A2981 RMK A01 T01690129  RH  077%=      5-min Rain = 0
KLE1 241115Z 12005KT 17/13 A2981 RMK A01 T01690130  RH  078%=      5-min Rain = 0
KLE1 241116Z 12005KT 17/13 A2982 RMK A01 T01690130  RH  078%=      5-min Rain = 0
KLE1 241117Z 12005KT 17/13 A2982 RMK A01 T01680130  RH  078%=      5-min Rain = 0
KLE1 241118Z 11005KT 17/13 A2981 RMK A01 T01690130  RH  078%=      5-min Rain = 0
KLE1 241119Z 12005KT 17/13 A2982 RMK A01 T01680130  RH  078%=      5-min Rain = 0
KLE1 241120Z 12005KT 17/13 A2982 RMK A01 T01680129  RH  078%=      5-min Rain = 0
KLE1 241121Z 12005KT 17/13 A2982 RMK A01 T01680130  RH  078%=      5-min Rain = 0
KLE1 241122Z 12005KT 17/13 A2982 RMK A01 T01680129  RH  078%=      5-min Rain = 0
KLE1 241123Z 12005KT 17/13 A2982 RMK A01 T01680129  RH  078%=      5-min Rain = 0
KLE1 241124Z 12005KT 17/13 A2982 RMK A01 T01680129  RH  077%=      5-min Rain = 0
KLE1 241125Z 12004KT 17/13 A2982 RMK A01 T01680129  RH  077%=      5-min Rain = 0
KLE1 241126Z 12004KT 17/13 A2982 RMK A01 T01690129  RH  077%=      5-min Rain = 0
KLE1 241127Z 11004KT 17/13 A2982 RMK A01 T01690129  RH  077%=      5-min Rain = 0
KLE1 241128Z 12004KT 17/13 A2982 RMK A01 T01690129  RH  077%=      5-min Rain = 0
KLE1 241129Z 13004KT 17/13 A2982 RMK A01 T01700129  RH  077%=      5-min Rain = 0
KLE1 241130Z 13004KT 17/13 A2982 RMK A01 T01700129  RH  077%=      5-min Rain = 0
KLE1 241131Z 13005KT 17/13 A2982 RMK A01 T01710129  RH  076%=      5-min Rain = 0
KLE1 241132Z 13004KT 17/13 A2982 RMK A01 T01710128  RH  076%=      5-min Rain = 0
KLE1 241133Z 14004KT 17/13 A2982 RMK A01 T01710128  RH  076%=      5-min Rain = 0
KLE1 241134Z 14005KT 17/13 A2982 RMK A01 T01710128  RH  076%=      5-min Rain = 0
KLE1 241135Z 13005KT 17/13 A2981 RMK A01 T01720128  RH  075%=      5-min Rain = 0
KLE1 241136Z 14005KT 17/13 A2981 RMK A01 T01720128  RH  075%=      5-min Rain = 0
KLE1 241137Z 14005KT 17/13 A2981 RMK A01 T01710128  RH  075%=      5-min Rain = 0
KLE1 241138Z 13005KT 17/13 A2981 RMK A01 T01720128  RH  075%=      5-min Rain = 0
KLE1 241139Z 13004KT 17/13 A2981 RMK A01 T01710128  RH  075%=      5-min Rain = 0
KLE1 241140Z 14004KT 17/13 A2981 RMK A01 T01710128  RH  076%=      5-min Rain = 0
KLE1 241141Z 14004KT 17/13 A2981 RMK A01 T01700128  RH  076%=      5-min Rain = 0
KLE1 241142Z 13004KT 17/13 A2981 RMK A01 T01710128  RH  076%=      5-min Rain = 0
KLE1 241143Z 14004KT 17/13 A2982 RMK A01 T01700127  RH  076%=      5-min Rain = 0
KLE1 241144Z 14003KT 17/13 A2981 RMK A01 T01710128  RH  076%=      5-min Rain = 0
KLE1 241145Z 13003KT 17/13 A2981 RMK A01 T01710128  RH  075%=      5-min Rain = 0
KLE1 241146Z 13005KT 17/13 A2982 RMK A01 T01710128  RH  075%=      5-min Rain = 0
KLE1 241147Z 13004KT 17/13 A2981 RMK A01 T01720128  RH  075%=      5-min Rain = 0
KLE1 241148Z 13004KT 17/13 A2982 RMK A01 T01710127  RH  075%=      5-min Rain = 0
KLE1 241149Z 13004KT 17/13 A2981 RMK A01 T01700128  RH  076%=      5-min Rain = 0
KLE1 241150Z 15004KT 17/13 A2981 RMK A01 T01710127  RH  076%=      5-min Rain = 0
KLE1 241151Z 14004KT 17/13 A2981 RMK A01 T01720127  RH  075%=      5-min Rain = 0
KLE1 241152Z 14005KT 17/13 A2981 RMK A01 T01720127  RH  075%=      5-min Rain = 0
KLE1 241153Z 13004KT 17/13 A2981 RMK A01 T01730127  RH  074%=      5-min Rain = 0
KLE1 241154Z 13005KT 17/13 A2981 RMK A01 T01730127  RH  074%=      5-min Rain = 0
KLE1 241155Z 15006KT 17/13 A2981 RMK A01 T01730127  RH  075%=      5-min Rain = 0
KLE1 241156Z 15003KT 17/13 A2981 RMK A01 T01730126  RH  074%=      5-min Rain = 0
KLE1 241157Z 12004KT 18/13 A2981 RMK A01 T01750127  RH  074%=      5-min Rain = 0
KLE1 241158Z 14003KT 18/13 A2981 RMK A01 T01750127  RH  073%=      5-min Rain = 0
KLE1 241159Z 16003KT 18/13 A2982 RMK A01 T01750126  RH  073%=      5-min Rain = 0
KLE1 241200Z 14005KT 18/13 A2981 RMK A01 T01760126  RH  073%=      5-min Rain = 0
KLE1 241201Z 16004KT 18/13 A2981 RMK A01 T01760126  RH  073%=      5-min Rain = 0
KLE1 241202Z 16004KT 18/13 A2981 RMK A01 T01760127  RH  073%=      5-min Rain = 0
KLE1 241203Z 13005KT 18/13 A2981 RMK A01 T01760125  RH  072%=      5-min Rain = 0
KLE1 241204Z 13004KT 18/13 A2981 RMK A01 T01770127  RH  072%=      5-min Rain = 0
KLE1 241205Z 14004KT 18/13 A2981 RMK A01 T01760126  RH  073%=      5-min Rain = 0
KLE1 241206Z 11004KT 18/13 A2981 RMK A01 T01760126  RH  073%=      5-min Rain = 0
KLE1 241207Z 12003KT 18/13 A2981 RMK A01 T01760127  RH  073%=      5-min Rain = 0
KLE1 241208Z 12004KT 18/13 A2981 RMK A01 T01760127  RH  073%=      5-min Rain = 0
KLE1 241209Z 12003KT 18/13 A2982 RMK A01 T01760127  RH  073%=      5-min Rain = 0
KLE1 241210Z 13004KT 18/13 A2982 RMK A01 T01750127  RH  073%=      5-min Rain = 0
KLE1 241211Z 12003KT 18/13 A2982 RMK A01 T01750127  RH  073%=      5-min Rain = 0
KLE1 241212Z 12004KT 18/13 A2982 RMK A01 T01750127  RH  073%=      5-min Rain = 0
KLE1 241213Z 11004KT 18/13 A2982 RMK A01 T01750126  RH  073%=      5-min Rain = 0
KLE1 241214Z 11004KT 18/13 A2982 RMK A01 T01750127  RH  073%=      5-min Rain = 0
KLE1 241215Z 10004KT 18/13 A2982 RMK A01 T01750127  RH  073%=      5-min Rain = 0
KLE1 241216Z 11003KT 18/13 A2982 RMK A01 T01750126  RH  073%=      5-min Rain = 0
KLE1 241217Z 12003KT 18/13 A2982 RMK A01 T01750126  RH  073%=      5-min Rain = 0
KLE1 241218Z 10003KT 18/13 A2982 RMK A01 T01760126  RH  073%=      5-min Rain = 0
KLE1 241219Z 11004KT 18/13 A2982 RMK A01 T01750127  RH  073%=      5-min Rain = 0
KLE1 241220Z 10003KT 18/13 A2982 RMK A01 T01750127  RH  073%=      5-min Rain = 0
KLE1 241221Z 09003KT 17/13 A2982 RMK A01 T01740127  RH  074%=      5-min Rain = 0
KLE1 241222Z 09003KT 17/13 A2982 RMK A01 T01740128  RH  074%=      5-min Rain = 0
KLE1 241223Z 10003KT 17/13 A2982 RMK A01 T01730127  RH  075%=      5-min Rain = 0
KLE1 241224Z 09003KT 17/13 A2982 RMK A01 T01720127  RH  075%=      5-min Rain = 0
KLE1 241225Z 10004KT 17/13 A2983 RMK A01 T01710127  RH  075%=      5-min Rain = 0
KLE1 241226Z 11003KT 17/13 A2983 RMK A01 T01710127  RH  075%=      5-min Rain = 0
KLE1 241227Z 09002KT 17/13 A2983 RMK A01 T01700127  RH  076%=      5-min Rain = 0
KLE1 241228Z 09003KT 17/13 A2983 RMK A01 T01700128  RH  076%=      5-min Rain = 0
KLE1 241229Z 10003KT 17/13 A2983 RMK A01 T01690127  RH  076%=      5-min Rain = 0
KLE1 241230Z 09004KT 17/13 A2983 RMK A01 T01690127  RH  076%=      5-min Rain = 0
KLE1 241231Z 09003KT 17/13 A2983 RMK A01 T01690126  RH  076%=      5-min Rain = 0
KLE1 241232Z 09003KT 17/13 A2983 RMK A01 T01700127  RH  076%=      5-min Rain = 0
KLE1 241233Z 09003KT 17/13 A2983 RMK A01 T01700127  RH  076%=      5-min Rain = 0
KLE1 241234Z 07003KT 17/13 A2983 RMK A01 T01700127  RH  076%=      5-min Rain = 0
KLE1 241235Z 12003KT 17/13 A2983 RMK A01 T01700127  RH  076%=      5-min Rain = 0
KLE1 241236Z 09002KT 17/13 A2983 RMK A01 T01710125  RH  075%=      5-min Rain = 0
KLE1 241237Z 11002KT 17/13 A2983 RMK A01 T01730127  RH  075%=      5-min Rain = 0
KLE1 241238Z 07002KT 17/13 A2983 RMK A01 T01730128  RH  075%=      5-min Rain = 0
KLE1 241239Z 07002KT 17/13 A2983 RMK A01 T01720128  RH  075%=      5-min Rain = 0
KLE1 241240Z 07003KT 17/13 A2983 RMK A01 T01720129  RH  076%=      5-min Rain = 0
KLE1 241241Z 07002KT 17/13 A2983 RMK A01 T01710128  RH  076%=      5-min Rain = 0
KLE1 241242Z 07003KT 17/13 A2983 RMK A01 T01710128  RH  076%=      5-min Rain = 0
KLE1 241243Z 08003KT 17/13 A2983 RMK A01 T01720130  RH  076%=      5-min Rain = 0
KLE1 241244Z 08003KT 17/13 A2983 RMK A01 T01730131  RH  076%=      5-min Rain = 0
KLE1 241245Z 10003KT 18/13 A2983 RMK A01 T01760133  RH  076%=      5-min Rain = 0
KLE1 241246Z 09004KT 18/13 A2983 RMK A01 T01780131  RH  074%=      5-min Rain = 0
KLE1 241247Z 11004KT 18/13 A2983 RMK A01 T01790132  RH  074%=      5-min Rain = 0
KLE1 241248Z 10003KT 18/13 A2983 RMK A01 T01810132  RH  073%=      5-min Rain = 0
KLE1 241249Z 11004KT 18/13 A2983 RMK A01 T01820132  RH  072%=      5-min Rain = 0
KLE1 241250Z 11004KT 18/13 A2983 RMK A01 T01830131  RH  072%=      5-min Rain = 0
KLE1 241251Z 11004KT 18/13 A2983 RMK A01 T01830130  RH  071%=      5-min Rain = 0
KLE1 241252Z 12003KT 18/13 A2983 RMK A01 T01840132  RH  071%=      5-min Rain = 0
KLE1 241253Z 12004KT 19/13 A2983 RMK A01 T01850132  RH  071%=      5-min Rain = 0
KLE1 241254Z 13005KT 19/13 A2983 RMK A01 T01870133  RH  071%=      5-min Rain = 0
KLE1 241255Z 11005KT 19/13 A2983 RMK A01 T01880133  RH  070%=      5-min Rain = 0
KLE1 241256Z 13005KT 19/14 A2983 RMK A01 T01910137  RH  071%=      5-min Rain = 0
KLE1 241257Z 12006KT 19/14 A2983 RMK A01 T01920135  RH  070%=      5-min Rain = 0
KLE1 241258Z 12005KT 19/13 A2983 RMK A01 T01920134  RH  069%=      5-min Rain = 0
KLE1 241259Z 11005KT 19/14 A2983 RMK A01 T01930135  RH  069%=      5-min Rain = 0
KLE1 241300Z 11005KT 19/13 A2982 RMK A01 T01930133  RH  068%=      5-min Rain = 0
KLE1 241301Z 12006KT 19/13 A2983 RMK A01 T01940132  RH  067%=      5-min Rain = 0
KLE1 241302Z 12006KT 19/13 A2983 RMK A01 T01940133  RH  068%=      5-min Rain = 0
KLE1 241303Z 12007KT 19/13 A2983 RMK A01 T01940133  RH  068%=      5-min Rain = 0
KLE1 241304Z 11007KT 20/13 A2983 RMK A01 T01950132  RH  067%=      5-min Rain = 0
KLE1 241305Z 10006KT 20/13 A2983 RMK A01 T01950131  RH  067%=      5-min Rain = 0
KLE1 241306Z 11007KT 20/13 A2983 RMK A01 T01950132  RH  067%=      5-min Rain = 0
KLE1 241307Z 13004KT 20/13 A2983 RMK A01 T01970130  RH  065%=      5-min Rain = 0
KLE1 241308Z 10005KT 20/13 A2983 RMK A01 T01970129  RH  064%=      5-min Rain = 0
KLE1 241309Z 11006KT 20/13 A2983 RMK A01 T01980131  RH  065%=      5-min Rain = 0
KLE1 241310Z 11006KT 20/13 A2983 RMK A01 T01980132  RH  065%=      5-min Rain = 0
KLE1 241311Z 11005KT 20/13 A2983 RMK A01 T01980130  RH  065%=      5-min Rain = 0
KLE1 241312Z 10004KT 20/13 A2983 RMK A01 T01990131  RH  065%=      5-min Rain = 0
KLE1 241313Z 11004KT 20/13 A2983 RMK A01 T01990131  RH  065%=      5-min Rain = 0
KLE1 241314Z 09003KT 20/13 A2983 RMK A01 T02000131  RH  064%=      5-min Rain = 0
KLE1 241315Z 11003KT 20/13 A2983 RMK A01 T02010130  RH  064%=      5-min Rain = 0
KLE1 241316Z 12004KT 20/13 A2983 RMK A01 T02010131  RH  064%=      5-min Rain = 0
KLE1 241317Z 12005KT 20/13 A2983 RMK A01 T02020131  RH  064%=      5-min Rain = 0
KLE1 241318Z 13005KT 20/13 A2983 RMK A01 T02020130  RH  063%=      5-min Rain = 0
KLE1 241319Z 12006KT 20/13 A2983 RMK A01 T02020132  RH  064%=      5-min Rain = 0
KLE1 241320Z 14006KT 20/13 A2983 RMK A01 T02030129  RH  063%=      5-min Rain = 0
KLE1 241321Z 14005KT 20/13 A2983 RMK A01 T02020129  RH  063%=      5-min Rain = 0
KLE1 241322Z 14007KT 20/13 A2982 RMK A01 T02020131  RH  064%=      5-min Rain = 0
KLE1 241323Z 13007KT 20/13 A2982 RMK A01 T02020131  RH  063%=      5-min Rain = 0
KLE1 241324Z 13007KT 20/13 A2982 RMK A01 T02030131  RH  063%=      5-min Rain = 0
KLE1 241325Z 13007KT 20/13 A2983 RMK A01 T02040131  RH  063%=      5-min Rain = 0
KLE1 241326Z 13007KT 20/13 A2983 RMK A01 T02040132  RH  063%=      5-min Rain = 0
KLE1 241327Z 13008KT 20/13 A2982 RMK A01 T02040133  RH  063%=      5-min Rain = 0
KLE1 241328Z 15008KT 21/13 A2983 RMK A01 T02050130  RH  062%=      5-min Rain = 0
KLE1 241329Z 14008KT 21/13 A2982 RMK A01 T02050132  RH  063%=      5-min Rain = 0
KLE1 241330Z 13008KT 21/13 A2983 RMK A01 T02060133  RH  063%=      5-min Rain = 0
KLE1 241331Z 14007KT 21/13 A2983 RMK A01 T02070132  RH  062%=      5-min Rain = 0
KLE1 241332Z 14008KT 21/13 A2983 RMK A01 T02070131  RH  062%=      5-min Rain = 0
KLE1 241333Z 14007KT 21/13 A2983 RMK A01 T02080131  RH  062%=      5-min Rain = 0
KLE1 241334Z 15007KT 21/13 A2983 RMK A01 T02080131  RH  061%=      5-min Rain = 0
KLE1 241335Z 14008KT 21/13 A2983 RMK A01 T02080132  RH  061%=      5-min Rain = 0
KLE1 241336Z 14009KT 21/13 A2983 RMK A01 T02090131  RH  061%=      5-min Rain = 0
KLE1 241337Z 14009KT 21/13 A2983 RMK A01 T02090131  RH  061%=      5-min Rain = 0
KLE1 241338Z 15009KT 21/13 A2983 RMK A01 T02100131  RH  060%=      5-min Rain = 0
KLE1 241339Z 15008KT 21/13 A2983 RMK A01 T02110131  RH  060%=      5-min Rain = 0
KLE1 241340Z 14009KT 21/13 A2983 RMK A01 T02120132  RH  060%=      5-min Rain = 0
KLE1 241341Z 13010KT 21/13 A2983 RMK A01 T02120131  RH  060%=      5-min Rain = 0
KLE1 241342Z 14009KT 21/13 A2983 RMK A01 T02120132  RH  060%=      5-min Rain = 0
KLE1 241343Z 14010KT 21/13 A2983 RMK A01 T02120132  RH  060%=      5-min Rain = 0
KLE1 241344Z 14009KT 21/13 A2983 RMK A01 T02120131  RH  060%=      5-min Rain = 0
KLE1 241345Z 15009KT 21/13 A2983 RMK A01 T02130130  RH  059%=      5-min Rain = 0
KLE1 241346Z 14009KT 21/13 A2983 RMK A01 T02130131  RH  059%=      5-min Rain = 0
KLE1 241347Z 13008KT 21/13 A2983 RMK A01 T02130130  RH  059%=      5-min Rain = 0
KLE1 241348Z 13010KT 21/13 A2983 RMK A01 T02130132  RH  060%=      5-min Rain = 0
KLE1 241349Z 13010KT 21/13 A2983 RMK A01 T02130132  RH  060%=      5-min Rain = 0
KLE1 241350Z 13010KT 21/13 A2982 RMK A01 T02140132  RH  060%=      5-min Rain = 0
KLE1 241351Z 13010KT 22/13 A2982 RMK A01 T02150133  RH  060%=      5-min Rain = 0
KLE1 241352Z 14011KT 22/13 A2982 RMK A01 T02160133  RH  059%=      5-min Rain = 0
KLE1 241353Z 13012KT 22/13 A2982 RMK A01 T02170133  RH  059%=      5-min Rain = 0
KLE1 241354Z 14011KT 22/13 A2982 RMK A01 T02170132  RH  058%=      5-min Rain = 0
KLE1 241355Z 14010KT 22/13 A2982 RMK A01 T02180133  RH  059%=      5-min Rain = 0
KLE1 241356Z 14011KT 22/14 A2982 RMK A01 T02200136  RH  059%=      5-min Rain = 0
KLE1 241357Z 13010KT 22/14 A2982 RMK A01 T02210135  RH  058%=      5-min Rain = 0
KLE1 241358Z 13011KT 22/14 A2982 RMK A01 T02210136  RH  058%=      5-min Rain = 0
KLE1 241359Z 13011KT 22/14 A2982 RMK A01 T02210136  RH  059%=      5-min Rain = 0
KLE1 241400Z 13010KT 22/14 A2982 RMK A01 T02200137  RH  059%=      5-min Rain = 0
KLE1 241401Z 13009KT 22/14 A2982 RMK A01 T02200138  RH  060%=      5-min Rain = 0
KLE1 241402Z 13011KT 22/14 A2982 RMK A01 T02220139  RH  059%=      5-min Rain = 0
KLE1 241403Z 13011KT 22/14 A2982 RMK A01 T02230138  RH  059%=      5-min Rain = 0
KLE1 241404Z 12011KT 22/14 A2982 RMK A01 T02220138  RH  059%=      5-min Rain = 0
KLE1 241405Z 13010KT 22/14 A2982 RMK A01 T02210138  RH  059%=      5-min Rain = 0
KLE1 241406Z 13012KT 22/14 A2982 RMK A01 T02210138  RH  059%=      5-min Rain = 0
KLE1 241407Z 14012KT 22/14 A2982 RMK A01 T02230138  RH  059%=      5-min Rain = 0
KLE1 241408Z 14012KT 22/14 A2982 RMK A01 T02230137  RH  058%=      5-min Rain = 0
KLE1 241409Z 14011KT 22/14 A2982 RMK A01 T02240136  RH  057%=      5-min Rain = 0
KLE1 241410Z 13012KT 23/14 A2982 RMK A01 T02250138  RH  058%=      5-min Rain = 0
KLE1 241411Z 14010KT 23/14 A2982 RMK A01 T02260137  RH  057%=      5-min Rain = 0
KLE1 241412Z 14012KT 23/14 A2982 RMK A01 T02270139  RH  057%=      5-min Rain = 0
KLE1 241413Z 15012KT 23/14 A2982 RMK A01 T02300137  RH  056%=      5-min Rain = 0
KLE1 241414Z 14012KT 23/14 A2982 RMK A01 T02300137  RH  056%=      5-min Rain = 0
KLE1 241415Z 16012KT 23/14 A2981 RMK A01 T02300135  RH  055%=      5-min Rain = 0
KLE1 241416Z 15011KT 23/14 A2982 RMK A01 T02290136  RH  056%=      5-min Rain = 0
KLE1 241417Z 15012KT 23/14 A2982 RMK A01 T02290138  RH  056%=      5-min Rain = 0
KLE1 241418Z 16011KT 23/14 A2982 RMK A01 T02310139  RH  056%=      5-min Rain = 0
KLE1 241419Z 15011KT 23/14 A2982 RMK A01 T02330139  RH  055%=      5-min Rain = 0
KLE1 241420Z 15014KT 24/14 A2981 RMK A01 T02350138  RH  054%=      5-min Rain = 0
KLE1 241421Z 16010G15KT 23/14 A2981 RMK A01 T02340138  RH  055%=      5-min Rain = 0
KLE1 241422Z 16012KT 24/14 A2981 RMK A01 T02350139  RH  055%=      5-min Rain = 0
KLE1 241423Z 15012KT 24/14 A2981 RMK A01 T02350137  RH  054%=      5-min Rain = 0
KLE1 241424Z 15012KT 24/14 A2981 RMK A01 T02350138  RH  054%=      5-min Rain = 0
KLE1 241425Z 15010KT 24/14 A2981 RMK A01 T02360138  RH  054%=      5-min Rain = 0
KLE1 241426Z 14012KT 24/14 A2981 RMK A01 T02360140  RH  055%=      5-min Rain = 0
KLE1 241427Z 16012KT 24/14 A2981 RMK A01 T02380139  RH  054%=      5-min Rain = 0
KLE1 241428Z 17011KT 24/14 A2982 RMK A01 T02390137  RH  053%=      5-min Rain = 0
KLE1 241429Z 17012KT 24/14 A2982 RMK A01 T02390136  RH  052%=      5-min Rain = 0
KLE1 241430Z 17012KT 24/14 A2982 RMK A01 T02390135  RH  052%=      5-min Rain = 0
KLE1 241431Z 17011KT 24/14 A2982 RMK A01 T02390135  RH  052%=      5-min Rain = 0
KLE1 241432Z 17013KT 24/14 A2982 RMK A01 T02380136  RH  053%=      5-min Rain = 0
KLE1 241433Z 16015KT 24/14 A2982 RMK A01 T02390136  RH  052%=      5-min Rain = 0
KLE1 241434Z 15015KT 24/14 A2981 RMK A01 T02390135  RH  052%=      5-min Rain = 0
KLE1 241435Z 16012G17KT 24/14 A2982 RMK A01 T02380136  RH  053%=      5-min Rain = 0
KLE1 241436Z 16013KT 24/14 A2982 RMK A01 T02390136  RH  052%=      5-min Rain = 0
KLE1 241437Z 17011KT 24/14 A2981 RMK A01 T02400136  RH  052%=      5-min Rain = 0
KLE1 241438Z 15011G16KT 24/14 A2981 RMK A01 T02400137  RH  053%=      5-min Rain = 0
KLE1 241439Z 14013KT 24/14 A2981 RMK A01 T02400136  RH  052%=      5-min Rain = 0
KLE1 241440Z 15012KT 24/14 A2982 RMK A01 T02410138  RH  053%=      5-min Rain = 0
KLE1 241441Z 15015KT 24/14 A2982 RMK A01 T02420137  RH  052%=      5-min Rain = 0
KLE1 241442Z 15012KT 24/14 A2982 RMK A01 T02410138  RH  053%=      5-min Rain = 0
KLE1 241443Z 15013KT 24/14 A2982 RMK A01 T02430139  RH  052%=      5-min Rain = 0
KLE1 241444Z 16011KT 24/14 A2982 RMK A01 T02430138  RH  052%=      5-min Rain = 0
KLE1 241445Z 16010KT 24/14 A2982 RMK A01 T02430139  RH  052%=      5-min Rain = 0
KLE1 241446Z 15009KT 24/14 A2982 RMK A01 T02430139  RH  052%=      5-min Rain = 0
KLE1 241447Z 14010KT 24/14 A2982 RMK A01 T02440140  RH  052%=      5-min Rain = 0
KLE1 241448Z 14012KT 24/14 A2982 RMK A01 T02440140  RH  052%=      5-min Rain = 0
KLE1 241449Z 14013KT 25/14 A2982 RMK A01 T02450140  RH  052%=      5-min Rain = 0
KLE1 241450Z 14010KT 24/14 A2982 RMK A01 T02440140  RH  052%=      5-min Rain = 0
KLE1 241451Z 13009KT 24/14 A2982 RMK A01 T02440140  RH  052%=      5-min Rain = 0
KLE1 241452Z 13011KT 25/14 A2982 RMK A01 T02450143  RH  053%=      5-min Rain = 0
KLE1 241453Z 13012KT 25/14 A2982 RMK A01 T02450144  RH  053%=      5-min Rain = 0
KLE1 241454Z 14011KT 25/14 A2982 RMK A01 T02470143  RH  052%=      5-min Rain = 0
KLE1 241455Z 14008KT 25/14 A2982 RMK A01 T02480143  RH  052%=      5-min Rain = 0
KLE1 241456Z 13008KT 25/14 A2982 RMK A01 T02480143  RH  052%=      5-min Rain = 0
KLE1 241457Z 12011KT 25/14 A2982 RMK A01 T02480143  RH  052%=      5-min Rain = 0
KLE1 241458Z 12010KT 25/14 A2982 RMK A01 T02480143  RH  052%=      5-min Rain = 0
KLE1 241459Z 16011KT 25/14 A2982 RMK A01 T02470143  RH  052%=      5-min Rain = 0
KLE1 241500Z 14010KT 25/14 A2982 RMK A01 T02490144  RH  052%=      5-min Rain = 0
KLE1 241501Z 13011KT 25/15 A2982 RMK A01 T02510146  RH  052%=      5-min Rain = 0
KLE1 241502Z 13009KT 25/15 A2981 RMK A01 T02510148  RH  052%=      5-min Rain = 0
KLE1 241503Z 14010KT 25/15 A2981 RMK A01 T02540147  RH  052%=      5-min Rain = 0
KLE1 241504Z 15013KT 25/14 A2981 RMK A01 T02540144  RH  050%=      5-min Rain = 0
KLE1 241505Z 14013KT 25/14 A2981 RMK A01 T02540144  RH  050%=      5-min Rain = 0
KLE1 241506Z 15013KT 26/14 A2981 RMK A01 T02570144  RH  050%=      5-min Rain = 0
KLE1 241507Z 15012KT 26/14 A2981 RMK A01 T02590143  RH  049%=      5-min Rain = 0
KLE1 241508Z 13011KT 26/15 A2981 RMK A01 T02570145  RH  050%=      5-min Rain = 0
KLE1 241509Z 13014KT 26/15 A2981 RMK A01 T02560145  RH  050%=      5-min Rain = 0
KLE1 241510Z 14010KT 26/14 A2981 RMK A01 T02550142  RH  049%=      5-min Rain = 0
KLE1 241511Z 15010KT 25/14 A2981 RMK A01 T02540143  RH  050%=      5-min Rain = 0
KLE1 241512Z 16011KT 26/14 A2981 RMK A01 T02560144  RH  050%=      5-min Rain = 0
KLE1 241513Z 17011KT 26/15 A2981 RMK A01 T02590146  RH  050%=      5-min Rain = 0
KLE1 241514Z 17011KT 26/15 A2981 RMK A01 T02610145  RH  049%=      5-min Rain = 0
KLE1 241515Z 17008KT 26/15 A2981 RMK A01 T02610146  RH  049%=      5-min Rain = 0
KLE1 241516Z 15013KT 26/15 A2981 RMK A01 T02640148  RH  049%=      5-min Rain = 0
KLE1 241517Z 15011KT 27/15 A2981 RMK A01 T02660148  RH  048%=      5-min Rain = 0
KLE1 241518Z 15015KT 27/15 A298 RMK A01 T02680147  RH  047%=      5-min Rain = 0
KLE1 241519Z 16013KT 27/15 A298 RMK A01 T02650147  RH  048%=      5-min Rain = 0
KLE1 241520Z 16011KT 26/15 A298 RMK A01 T02640147  RH  048%=      5-min Rain = 0
KLE1 241521Z 16012KT 26/15 A298 RMK A01 T02640148  RH  049%=      5-min Rain = 0
KLE1 241522Z 16011KT 27/15 A298 RMK A01 T02650146  RH  048%=      5-min Rain = 0
KLE1 241523Z 16012KT 27/15 A298 RMK A01 T02660150  RH  049%=      5-min Rain = 0
KLE1 241524Z 16015KT 27/15 A298 RMK A01 T02700150  RH  048%=      5-min Rain = 0
KLE1 241525Z 16014KT 27/15 A298 RMK A01 T02700150  RH  048%=      5-min Rain = 0
KLE1 241526Z 15015KT 27/15 A298 RMK A01 T02720151  RH  048%=      5-min Rain = 0
KLE1 241527Z 15014KT 27/15 A2979 RMK A01 T02720151  RH  047%=      5-min Rain = 0
KLE1 241528Z 16017KT 27/15 A2979 RMK A01 T02720151  RH  048%=      5-min Rain = 0
KLE1 241529Z 17014G19KT 27/15 A2979 RMK A01 T02720152  RH  048%=      5-min Rain = 0
KLE1 241530Z 18017KT 28/15 A298 RMK A01 T02750152  RH  047%=      5-min Rain = 0
KLE1 241531Z 15012KT 28/15 A298 RMK A01 T02760153  RH  047%=      5-min Rain = 0
KLE1 241532Z 16015KT 28/15 A2979 RMK A01 T02780154  RH  047%=      5-min Rain = 0
KLE1 241533Z 18015KT 28/16 A2979 RMK A01 T02800156  RH  047%=      5-min Rain = 0
KLE1 241534Z 18017KT 28/16 A298 RMK A01 T02830158  RH  047%=      5-min Rain = 0
KLE1 241535Z 19017G22KT 28/16 A2979 RMK A01 T02840158  RH  046%=      5-min Rain = 0
KLE1 241536Z 19017KT 28/16 A2979 RMK A01 T02840159  RH  046%=      5-min Rain = 0
KLE1 241537Z 20020KT 29/16 A2979 RMK A01 T02870159  RH  046%=      5-min Rain = 0
KLE1 241538Z 19022KT 29/16 A2979 RMK A01 T02860157  RH  046%=      5-min Rain = 0
KLE1 241539Z 19022KT 28/16 A2979 RMK A01 T02830156  RH  046%=      5-min Rain = 0
KLE1 241540Z 21017KT 28/16 A2979 RMK A01 T02820157  RH  047%=      5-min Rain = 0
KLE1 241541Z 20016KT 29/16 A2979 RMK A01 T02860157  RH  046%=      5-min Rain = 0
KLE1 241542Z 20017G23KT 29/16 A2979 RMK A01 T02860156  RH  045%=      5-min Rain = 0
KLE1 241543Z 20018G23KT 29/16 A2979 RMK A01 T02850158  RH  046%=      5-min Rain = 0
KLE1 241544Z 20019KT 29/16 A2979 RMK A01 T02850158  RH  046%=      5-min Rain = 0
KLE1 241545Z 20016KT 28/16 A2979 RMK A01 T02840160  RH  047%=      5-min Rain = 0
KLE1 241546Z 20017KT 28/16 A2979 RMK A01 T02840159  RH  047%=      5-min Rain = 0
KLE1 241547Z 18017KT 28/16 A2979 RMK A01 T02840160  RH  047%=      5-min Rain = 0
KLE1 241548Z 20019KT 29/16 A2979 RMK A01 T02850160  RH  047%=      5-min Rain = 0
KLE1 241549Z 19016KT 29/16 A2979 RMK A01 T02860160  RH  047%=      5-min Rain = 0
KLE1 241550Z 18017KT 29/16 A2979 RMK A01 T02850161  RH  047%=      5-min Rain = 0
KLE1 241551Z 19020KT 29/16 A2979 RMK A01 T02870162  RH  047%=      5-min Rain = 0
KLE1 241552Z 19016KT 29/16 A2979 RMK A01 T02870161  RH  047%=      5-min Rain = 0
KLE1 241553Z 18019KT 29/16 A2979 RMK A01 T02880162  RH  047%=      5-min Rain = 0
KLE1 241554Z 18021G26KT 29/16 A2978 RMK A01 T02880162  RH  046%=      5-min Rain = 0
KLE1 241555Z 18023KT 29/16 A2978 RMK A01 T02870161  RH  046%=      5-min Rain = 0
KLE1 241556Z 19022KT 29/16 A2978 RMK A01 T02870162  RH  047%=      5-min Rain = 0
KLE1 241557Z 18022KT 29/16 A2978 RMK A01 T02860162  RH  047%=      5-min Rain = 0
KLE1 241558Z 18021KT 29/16 A2978 RMK A01 T02870162  RH  047%=      5-min Rain = 0
KLE1 241559Z 18017KT 29/16 A2978 RMK A01 T02860161  RH  047%=      5-min Rain = 0
KLE1 241600Z 18017G23KT 29/16 A2978 RMK A01 T02860164  RH  048%=      5-min Rain = 0
KLE1 241601Z 20018KT 29/16 A2978 RMK A01 T02910164  RH  046%=      5-min Rain = 0
KLE1 241602Z 20018G23KT 29/16 A2978 RMK A01 T02930164  RH  046%=      5-min Rain = 0
KLE1 241603Z 20021KT 29/16 A2978 RMK A01 T02940163  RH  045%=      5-min Rain = 0
KLE1 241604Z 21021G26KT 29/16 A2978 RMK A01 T02940162  RH  045%=      5-min Rain = 0
KLE1 241605Z 21020KT 29/16 A2978 RMK A01 T02930161  RH  045%=      5-min Rain = 0
KLE1 241606Z 21018KT 29/16 A2978 RMK A01 T02900161  RH  046%=      5-min Rain = 0
KLE1 241607Z 22016KT 29/16 A2978 RMK A01 T02890161  RH  046%=      5-min Rain = 0
KLE1 241608Z 21016KT 29/16 A2978 RMK A01 T02880162  RH  047%=      5-min Rain = 0
KLE1 241609Z 20017G22KT 29/17 A2978 RMK A01 T02920165  RH  046%=      5-min Rain = 0
KLE1 241610Z 20020KT 29/16 A2978 RMK A01 T02940163  RH  045%=      5-min Rain = 0
KLE1 241611Z 20019KT 29/16 A2978 RMK A01 T02940161  RH  045%=      5-min Rain = 0
KLE1 241612Z 20018G23KT 29/16 A2978 RMK A01 T02920161  RH  045%=      5-min Rain = 0
KLE1 241613Z 20022KT 29/16 A2978 RMK A01 T02920161  RH  045%=      5-min Rain = 0
KLE1 241614Z 20020G26KT 29/16 A2978 RMK A01 T02920160  RH  045%=      5-min Rain = 0
KLE1 241615Z 19020G29KT 29/16 A2978 RMK A01 T02890158  RH  045%=      5-min Rain = 0
KLE1 241616Z 19022G28KT 29/16 A2978 RMK A01 T02870160  RH  046%=      5-min Rain = 0
KLE1 241617Z 20019G25KT 29/16 A2978 RMK A01 T02890161  RH  046%=      5-min Rain = 0
KLE1 241618Z 20018G23KT 29/16 A2978 RMK A01 T02900159  RH  045%=      5-min Rain = 0
KLE1 241619Z 21016G21KT 29/16 A2978 RMK A01 T02900160  RH  046%=      5-min Rain = 0
KLE1 241620Z 19017KT 29/16 A2978 RMK A01 T02900160  RH  045%=      5-min Rain = 0
KLE1 241621Z 18019KT 29/16 A2978 RMK A01 T02890161  RH  046%=      5-min Rain = 0
KLE1 241622Z 18016KT 29/16 A2978 RMK A01 T02910162  RH  046%=      5-min Rain = 0
KLE1 241623Z 21022KT 29/16 A2978 RMK A01 T02930163  RH  045%=      5-min Rain = 0
KLE1 241624Z 20020G25KT 30/16 A2978 RMK A01 T02950163  RH  045%=      5-min Rain = 0
KLE1 241625Z 20019G24KT 30/16 A2978 RMK A01 T02960162  RH  044%=      5-min Rain = 0
KLE1 241626Z 20020KT 29/16 A2978 RMK A01 T02940159  RH  044%=      5-min Rain = 0
KLE1 241627Z 20021KT 29/16 A2978 RMK A01 T02910158  RH  045%=      5-min Rain = 0
KLE1 241628Z 19019KT 29/16 A2979 RMK A01 T02910159  RH  045%=      5-min Rain = 0
KLE1 241629Z 20018G23KT 29/16 A2978 RMK A01 T02900158  RH  045%=      5-min Rain = 0
KLE1 241630Z 21022KT 29/16 A2978 RMK A01 T02900159  RH  045%=      5-min Rain = 0
KLE1 241631Z 21017KT 29/16 A2979 RMK A01 T02910159  RH  045%=      5-min Rain = 0
KLE1 241632Z 20019KT 29/16 A2979 RMK A01 T02930160  RH  045%=      5-min Rain = 0
KLE1 241633Z 18018KT 29/16 A2978 RMK A01 T02930160  RH  044%=      5-min Rain = 0
KLE1 241634Z 20015G21KT 29/16 A2979 RMK A01 T02920160  RH  045%=      5-min Rain = 0
KLE1 241635Z 21018KT 29/16 A2979 RMK A01 T02930162  RH  045%=      5-min Rain = 0
KLE1 241636Z 20016KT 29/16 A2979 RMK A01 T02940161  RH  045%=      5-min Rain = 0
KLE1 241637Z 21014KT 29/16 A2979 RMK A01 T02940162  RH  045%=      5-min Rain = 0
KLE1 241638Z 22014KT 29/16 A2979 RMK A01 T02940162  RH  045%=      5-min Rain = 0
KLE1 241639Z 21019KT 29/16 A2979 RMK A01 T02940161  RH  045%=      5-min Rain = 0
KLE1 241640Z 20019KT 30/16 A2979 RMK A01 T02950160  RH  044%=      5-min Rain = 0
KLE1 241641Z 21017KT 29/16 A2979 RMK A01 T02940160  RH  044%=      5-min Rain = 0
KLE1 241642Z 20018KT 29/16 A2979 RMK A01 T02940160  RH  044%=      5-min Rain = 0
KLE1 241643Z 20017KT 29/16 A2979 RMK A01 T02940160  RH  044%=      5-min Rain = 0
KLE1 241644Z 20016KT 29/16 A2979 RMK A01 T02940159  RH  044%=      5-min Rain = 0
KLE1 241645Z 21019KT 29/16 A2979 RMK A01 T02940160  RH  044%=      5-min Rain = 0
KLE1 241646Z 21014G19KT 30/16 A2979 RMK A01 T02950161  RH  044%=      5-min Rain = 0
KLE1 241647Z 20013KT 30/16 A2979 RMK A01 T02960162  RH  044%=      5-min Rain = 0
KLE1 241648Z 21012KT 30/16 A2979 RMK A01 T02980162  RH  044%=      5-min Rain = 0
KLE1 241649Z 19011KT 30/16 A2979 RMK A01 T02990162  RH  044%=      5-min Rain = 0
KLE1 241650Z 21014G20KT 30/16 A2979 RMK A01 T03010164  RH  044%=      5-min Rain = 0
KLE1 241651Z 20016G21KT 30/16 A2979 RMK A01 T03010161  RH  043%=      5-min Rain = 0
KLE1 241652Z 21016KT 30/16 A2979 RMK A01 T03000163  RH  044%=      5-min Rain = 0
KLE1 241653Z 21014KT 30/16 A2979 RMK A01 T03030164  RH  043%=      5-min Rain = 0
KLE1 241654Z 21014KT 31/16 A2979 RMK A01 T03050160  RH  042%=      5-min Rain = 0
KLE1 241655Z 22013KT 30/16 A2979 RMK A01 T03020162  RH  043%=      5-min Rain = 0
KLE1 241656Z 22015KT 30/16 A2979 RMK A01 T03020161  RH  043%=      5-min Rain = 0
KLE1 241657Z 20015G20KT 30/16 A2979 RMK A01 T03010162  RH  043%=      5-min Rain = 0
KLE1 241658Z 21017KT 30/16 A2979 RMK A01 T03000162  RH  043%=      5-min Rain = 0
KLE1 241659Z 20017KT 30/16 A2979 RMK A01 T03010162  RH  043%=      5-min Rain = 0
KLE1 241700Z 20019KT 30/16 A2979 RMK A01 T03020161  RH  043%=      5-min Rain = 0
KLE1 241701Z 20017KT 30/16 A2979 RMK A01 T03010159  RH  042%=      5-min Rain = 0
KLE1 241702Z 21015KT 30/16 A2979 RMK A01 T03010158  RH  042%=      5-min Rain = 0
KLE1 241703Z 21014KT 30/16 A2979 RMK A01 T03010160  RH  042%=      5-min Rain = 0
KLE1 241704Z 21015KT 30/16 A2979 RMK A01 T03010162  RH  043%=      5-min Rain = 0
KLE1 241705Z 22019KT 30/16 A2979 RMK A01 T03040161  RH  042%=      5-min Rain = 0
KLE1 241706Z 22017KT 30/16 A2979 RMK A01 T03040159  RH  042%=      5-min Rain = 0
KLE1 241707Z 22015KT 30/16 A2979 RMK A01 T03010159  RH  042%=      5-min Rain = 0
KLE1 241708Z 22014KT 30/16 A2979 RMK A01 T03010159  RH  042%=      5-min Rain = 0
KLE1 241709Z 22013KT 30/16 A2979 RMK A01 T03000155  RH  041%=      5-min Rain = 0
KLE1 241710Z 21011KT 30/16 A2979 RMK A01 T02990156  RH  042%=      5-min Rain = 0
KLE1 241711Z 22011KT 30/16 A2979 RMK A01 T02990155  RH  042%=      5-min Rain = 0
KLE1 241712Z 21008KT 30/16 A2979 RMK A01 T02980156  RH  042%=      5-min Rain = 0
KLE1 241713Z 21012KT 30/16 A2979 RMK A01 T02990161  RH  044%=      5-min Rain = 0
KLE1 241714Z 21007G13KT 30/16 A2979 RMK A01 T03020162  RH  043%=      5-min Rain = 0
KLE1 241715Z 20011KT 31/17 A2979 RMK A01 T03050166  RH  043%=      5-min Rain = 0
KLE1 241716Z 22016KT 31/17 A2979 RMK A01 T03100166  RH  042%=      5-min Rain = 0
KLE1 241717Z 22014KT 31/16 A2979 RMK A01 T03120163  RH  041%=      5-min Rain = 0
KLE1 241718Z 22015KT 31/16 A2979 RMK A01 T03100163  RH  041%=      5-min Rain = 0
KLE1 241719Z 20016KT 31/16 A2979 RMK A01 T03090162  RH  041%=      5-min Rain = 0
KLE1 241720Z 21016G22KT 31/16 A2979 RMK A01 T03080162  RH  042%=      5-min Rain = 0
KLE1 241721Z 20017KT 31/16 A2979 RMK A01 T03070160  RH  041%=      5-min Rain = 0
KLE1 241722Z 21014KT 30/16 A2979 RMK A01 T03040158  RH  041%=      5-min Rain = 0
KLE1 241723Z 22016KT 30/16 A2979 RMK A01 T03040158  RH  041%=      5-min Rain = 0
KLE1 241724Z 21012KT 30/16 A2979 RMK A01 T03040158  RH  041%=      5-min Rain = 0
KLE1 241725Z 20016KT 31/16 A2979 RMK A01 T03060161  RH  042%=      5-min Rain = 0
KLE1 241726Z 20015KT 31/16 A2979 RMK A01 T03080160  RH  041%=      5-min Rain = 0
KLE1 241727Z 20015KT 31/16 A2979 RMK A01 T03080161  RH  041%=      5-min Rain = 0
KLE1 241728Z 20010KT 31/16 A2979 RMK A01 T03070160  RH  041%=      5-min Rain = 0
KLE1 241729Z 22012KT 31/16 A2979 RMK A01 T03070163  RH  042%=      5-min Rain = 0
KLE1 241730Z 21019KT 31/16 A2979 RMK A01 T03110161  RH  040%=      5-min Rain = 0
KLE1 241731Z 22018KT 31/16 A2978 RMK A01 T03100160  RH  040%=      5-min Rain = 0
KLE1 241732Z 22016KT 31/16 A2979 RMK A01 T03070160  RH  041%=      5-min Rain = 0
KLE1 241733Z 22012KT 31/16 A2979 RMK A01 T03060160  RH  041%=      5-min Rain = 0
KLE1 241734Z 24010KT 31/16 A2979 RMK A01 T03060160  RH  042%=      5-min Rain = 0
KLE1 241735Z 22011KT 31/16 A2978 RMK A01 T03050161  RH  042%=      5-min Rain = 0
KLE1 241736Z 20012KT 31/16 A2978 RMK A01 T03050161  RH  042%=      5-min Rain = 0
KLE1 241737Z 22016KT 31/16 A2978 RMK A01 T03070161  RH  042%=      5-min Rain = 0
KLE1 241738Z 23015G20KT 31/16 A2978 RMK A01 T03080160  RH  041%=      5-min Rain = 0
KLE1 241739Z 23016KT 31/16 A2978 RMK A01 T03060160  RH  041%=      5-min Rain = 0
KLE1 241740Z 21015KT 31/16 A2978 RMK A01 T03060163  RH  042%=      5-min Rain = 0
KLE1 241741Z 20021KT 31/16 A2978 RMK A01 T03090162  RH  041%=      5-min Rain = 0
KLE1 241742Z 20014G19KT 31/16 A2978 RMK A01 T03090159  RH  040%=      5-min Rain = 0
KLE1 241743Z 20011KT 31/16 A2978 RMK A01 T03060160  RH  041%=      5-min Rain = 0
KLE1 241744Z 19009KT 30/16 A2978 RMK A01 T03030159  RH  042%=      5-min Rain = 0
KLE1 241745Z 17010KT 31/16 A2978 RMK A01 T03050163  RH  042%=      5-min Rain = 0
KLE1 241746Z 18016KT 31/16 A2978 RMK A01 T03080163  RH  042%=      5-min Rain = 0
KLE1 241747Z 17014KT 31/16 A2978 RMK A01 T03090163  RH  041%=      5-min Rain = 0
KLE1 241748Z 18016G21KT 31/16 A2978 RMK A01 T03090163  RH  041%=      5-min Rain = 0
KLE1 241749Z 18014KT 31/16 A2978 RMK A01 T03070162  RH  041%=      5-min Rain = 0
KLE1 241750Z 18013KT 31/16 A2978 RMK A01 T03060161  RH  042%=      5-min Rain = 0
KLE1 241751Z 19016KT 30/16 A2978 RMK A01 T03040161  RH  042%=      5-min Rain = 0
KLE1 241752Z 19014KT 31/16 A2978 RMK A01 T03060162  RH  042%=      5-min Rain = 0
KLE1 241753Z 20015KT 31/16 A2978 RMK A01 T03070161  RH  041%=      5-min Rain = 0
KLE1 241754Z 21014KT 31/16 A2977 RMK A01 T03090163  RH  041%=      5-min Rain = 0
KLE1 241755Z 21016KT 32/17 A2978 RMK A01 T03150165  RH  041%=      5-min Rain = 0
KLE1 241756Z 21017KT 32/16 A2978 RMK A01 T03170163  RH  039%=      5-min Rain = 0
KLE1 241757Z 22016KT 32/16 A2978 RMK A01 T03190162  RH  039%=      5-min Rain = 0
KLE1 241758Z 21015KT 32/16 A2978 RMK A01 T03160160  RH  039%=      5-min Rain = 0
KLE1 241759Z 22012KT 31/16 A2978 RMK A01 T03140162  RH  040%=      5-min Rain = 0
KLE1 241800Z 22013G18KT 31/16 A2978 RMK A01 T03140161  RH  040%=      5-min Rain = 0
KLE1 241801Z 19016KT 32/16 A2978 RMK A01 T03160162  RH  040%=      5-min Rain = 0
KLE1 241802Z 20016KT 32/16 A2977 RMK A01 T03160158  RH  038%=      5-min Rain = 0
KLE1 241803Z 19017KT 31/16 A2977 RMK A01 T03140157  RH  039%=      5-min Rain = 0
KLE1 241804Z 18016KT 31/16 A2977 RMK A01 T03130159  RH  039%=      5-min Rain = 0
KLE1 241805Z 19018KT 31/16 A2977 RMK A01 T03130160  RH  040%=      5-min Rain = 0
KLE1 241806Z 20015KT 31/16 A2977 RMK A01 T03130159  RH  040%=      5-min Rain = 0
KLE1 241807Z 20015KT 31/16 A2977 RMK A01 T03130159  RH  040%=      5-min Rain = 0
KLE1 241808Z 21011KT 31/16 A2977 RMK A01 T03120162  RH  040%=      5-min Rain = 0
KLE1 241809Z 20015KT 32/16 A2977 RMK A01 T03180163  RH  039%=      5-min Rain = 0
KLE1 241810Z 21011KT 32/16 A2977 RMK A01 T03170155  RH  038%=      5-min Rain = 0
KLE1 241811Z 21011KT 31/16 A2977 RMK A01 T03140158  RH  039%=      5-min Rain = 0
KLE1 241812Z 20008KT 31/16 A2977 RMK A01 T03120158  RH  039%=      5-min Rain = 0
KLE1 241813Z 22010KT 31/16 A2977 RMK A01 T03100161  RH  041%=      5-min Rain = 0
KLE1 241814Z 22013G18KT 31/16 A2977 RMK A01 T03110162  RH  041%=      5-min Rain = 0
KLE1 241815Z 22017KT 32/16 A2977 RMK A01 T03150160  RH  039%=      5-min Rain = 0
KLE1 241816Z 22015KT 32/16 A2977 RMK A01 T03150159  RH  039%=      5-min Rain = 0
KLE1 241817Z 21015KT 32/16 A2977 RMK A01 T03170161  RH  039%=      5-min Rain = 0
KLE1 241818Z 21011KT 32/16 A2977 RMK A01 T03190157  RH  038%=      5-min Rain = 0
KLE1 241819Z 21009KT 32/16 A2977 RMK A01 T03170158  RH  038%=      5-min Rain = 0
KLE1 241820Z 22012KT 32/16 A2977 RMK A01 T03170162  RH  039%=      5-min Rain = 0
KLE1 241821Z 20013KT 32/16 A2977 RMK A01 T03190164  RH  039%=      5-min Rain = 0
KLE1 241822Z 18015KT 32/16 A2977 RMK A01 T03210162  RH  038%=      5-min Rain = 0
KLE1 241823Z 18010G16KT 32/16 A2977 RMK A01 T03190160  RH  038%=      5-min Rain = 0
KLE1 241824Z 18017KT 32/16 A2977 RMK A01 T03180162  RH  039%=      5-min Rain = 0
KLE1 241825Z 19010G15KT 32/16 A2977 RMK A01 T03170161  RH  039%=      5-min Rain = 0
KLE1 241826Z 20008KT 32/16 A2977 RMK A01 T03150162  RH  040%=      5-min Rain = 0
KLE1 241827Z 19011G16KT 32/16 A2977 RMK A01 T03150164  RH  040%=      5-min Rain = 0
KLE1 241828Z 20012KT 32/17 A2977 RMK A01 T03170166  RH  040%=      5-min Rain = 0
KLE1 241829Z 19012KT 32/16 A2976 RMK A01 T03150164  RH  040%=      5-min Rain = 0
KLE1 241830Z 20012KT 32/17 A2976 RMK A01 T03150165  RH  041%=      5-min Rain = 0
KLE1 241831Z 22014KT 32/16 A2976 RMK A01 T03170161  RH  039%=      5-min Rain = 0
KLE1 241832Z 22012KT 32/16 A2976 RMK A01 T03180159  RH  039%=      5-min Rain = 0
KLE1 241833Z 21008KT 32/16 A2976 RMK A01 T03170160  RH  039%=      5-min Rain = 0
KLE1 241834Z 20007KT 32/16 A2976 RMK A01 T03190161  RH  039%=      5-min Rain = 0
KLE1 241835Z 18009KT 32/16 A2976 RMK A01 T03190161  RH  039%=      5-min Rain = 0
KLE1 241836Z 18011KT 32/16 A2976 RMK A01 T03180163  RH  039%=      5-min Rain = 0
KLE1 241837Z 19014KT 32/17 A2976 RMK A01 T03210172  RH  041%=      5-min Rain = 0
KLE1 241838Z 18014KT 32/17 A2976 RMK A01 T03240173  RH  041%=      5-min Rain = 0
KLE1 241839Z 17016KT 33/17 A2976 RMK A01 T03270173  RH  040%=      5-min Rain = 0
KLE1 241840Z 17015G20KT 33/17 A2976 RMK A01 T03270171  RH  039%=      5-min Rain = 0
KLE1 241841Z 17015KT 32/17 A2976 RMK A01 T03230172  RH  040%=      5-min Rain = 0
KLE1 241842Z 17011G16KT 32/17 A2976 RMK A01 T03230169  RH  040%=      5-min Rain = 0
KLE1 241843Z 16010G15KT 32/17 A2976 RMK A01 T03210172  RH  041%=      5-min Rain = 0
KLE1 241844Z 16017KT 32/17 A2976 RMK A01 T03220169  RH  040%=      5-min Rain = 0
KLE1 241845Z 16017KT 32/17 A2976 RMK A01 T03220168  RH  040%=      5-min Rain = 0
KLE1 241846Z 17016KT 32/17 A2975 RMK A01 T03210167  RH  040%=      5-min Rain = 0
KLE1 241847Z 17018KT 32/17 A2975 RMK A01 T03210168  RH  040%=      5-min Rain = 0
KLE1 241848Z 19018KT 32/17 A2976 RMK A01 T03240168  RH  039%=      5-min Rain = 0
KLE1 241849Z 19017KT 32/17 A2975 RMK A01 T03220166  RH  039%=      5-min Rain = 0
KLE1 241850Z 18013KT 32/17 A2976 RMK A01 T03190166  RH  040%=      5-min Rain = 0
KLE1 241851Z 18011KT 32/17 A2976 RMK A01 T03200168  RH  040%=      5-min Rain = 0
KLE1 241852Z 18015G23KT 32/17 A2975 RMK A01 T03200167  RH  040%=      5-min Rain = 0
KLE1 241853Z 19019KT 32/17 A2975 RMK A01 T03210169  RH  040%=      5-min Rain = 0
KLE1 241854Z 19015KT 32/17 A2975 RMK A01 T03220168  RH  040%=      5-min Rain = 0
KLE1 241855Z 19014KT 32/17 A2975 RMK A01 T03220168  RH  040%=      5-min Rain = 0
KLE1 241856Z 19012KT 32/17 A2975 RMK A01 T03210167  RH  040%=      5-min Rain = 0
KLE1 241857Z 19009KT 32/17 A2975 RMK A01 T03180168  RH  041%=      5-min Rain = 0
KLE1 241858Z 18014KT 32/17 A2975 RMK A01 T03200167  RH  040%=      5-min Rain = 0
KLE1 241859Z 17015G20KT 32/17 A2975 RMK A01 T03210167  RH  040%=      5-min Rain = 0
KLE1 241900Z 16011G16KT 32/16 A2975 RMK A01 T03210164  RH  039%=      5-min Rain = 0
KLE1 241901Z 16014G19KT 32/17 A2975 RMK A01 T03180165  RH  040%=      5-min Rain = 0
KLE1 241902Z 15014G19KT 32/16 A2975 RMK A01 T03200163  RH  039%=      5-min Rain = 0
KLE1 241903Z 15018KT 32/16 A2975 RMK A01 T03200164  RH  039%=      5-min Rain = 0
KLE1 241904Z 17015KT 32/17 A2975 RMK A01 T03210165  RH  039%=      5-min Rain = 0
KLE1 241905Z 17019KT 33/17 A2975 RMK A01 T03270167  RH  039%=      5-min Rain = 0
KLE1 241906Z 16018KT 33/16 A2975 RMK A01 T03290164  RH  037%=      5-min Rain = 0
KLE1 241907Z 16015KT 33/16 A2975 RMK A01 T03270163  RH  037%=      5-min Rain = 0
KLE1 241908Z 16014G19KT 33/16 A2975 RMK A01 T03250163  RH  038%=      5-min Rain = 0
KLE1 241909Z 17017KT 32/16 A2975 RMK A01 T03230163  RH  038%=      5-min Rain = 0
KLE1 241910Z 16013KT 32/16 A2975 RMK A01 T03200163  RH  039%=      5-min Rain = 0
KLE1 241911Z 17011KT 32/16 A2975 RMK A01 T03190163  RH  039%=      5-min Rain = 0
KLE1 241912Z 16010KT 32/16 A2975 RMK A01 T03180162  RH  039%=      5-min Rain = 0
KLE1 241913Z 16011KT 32/16 A2975 RMK A01 T03150161  RH  040%=      5-min Rain = 0
KLE1 241914Z 16010KT 31/17 A2975 RMK A01 T03130166  RH  041%=      5-min Rain = 0
KLE1 241915Z 18014KT 32/17 A2975 RMK A01 T03150169  RH  042%=      5-min Rain = 0
KLE1 241916Z 19017KT 32/17 A2975 RMK A01 T03220166  RH  039%=      5-min Rain = 0
KLE1 241917Z 20014KT 33/16 A2975 RMK A01 T03280163  RH  037%=      5-min Rain = 0
KLE1 241918Z 21013KT 33/16 A2975 RMK A01 T03270163  RH  037%=      5-min Rain = 0
KLE1 241919Z 20011KT 33/17 A2975 RMK A01 T03280165  RH  038%=      5-min Rain = 0
KLE1 241920Z 18013KT 33/17 A2974 RMK A01 T03290169  RH  038%=      5-min Rain = 0
KLE1 241921Z 16016KT 33/17 A2974 RMK A01 T03330173  RH  039%=      5-min Rain = 0
KLE1 241922Z 17016KT 33/17 A2974 RMK A01 T03320172  RH  039%=      5-min Rain = 0
KLE1 241923Z 15010G16KT 33/17 A2974 RMK A01 T03280171  RH  039%=      5-min Rain = 0
KLE1 241924Z 17009KT 33/17 A2974 RMK A01 T03260171  RH  040%=      5-min Rain = 0
KLE1 241925Z 17010KT 32/17 A2974 RMK A01 T03240170  RH  040%=      5-min Rain = 0
KLE1 241926Z 17012KT 32/16 A2974 RMK A01 T03200163  RH  039%=      5-min Rain = 0
KLE1 241927Z 16011KT 32/16 A2974 RMK A01 T03190164  RH  039%=      5-min Rain = 0
KLE1 241928Z 18014G22KT 32/17 A2974 RMK A01 T03230166  RH  039%=      5-min Rain = 0
KLE1 241929Z 18015KT 33/17 A2974 RMK A01 T03250165  RH  038%=      5-min Rain = 0
KLE1 241930Z 18014KT 32/17 A2974 RMK A01 T03220166  RH  039%=      5-min Rain = 0
KLE1 241931Z 16012KT 32/17 A2974 RMK A01 T03220165  RH  039%=      5-min Rain = 0
KLE1 241932Z 15009KT 32/17 A2974 RMK A01 T03220169  RH  040%=      5-min Rain = 0
KLE1 241933Z 17011KT 33/17 A2974 RMK A01 T03280171  RH  039%=      5-min Rain = 0
KLE1 241934Z 17013KT 32/17 A2974 RMK A01 T03230165  RH  039%=      5-min Rain = 0
KLE1 241935Z 17016KT 32/16 A2974 RMK A01 T03170164  RH  040%=      5-min Rain = 0
KLE1 241936Z 17016KT 32/17 A2974 RMK A01 T03170166  RH  040%=      5-min Rain = 0
KLE1 241937Z 17012G17KT 32/17 A2974 RMK A01 T03210165  RH  039%=      5-min Rain = 0
KLE1 241938Z 17011KT 32/17 A2974 RMK A01 T03210166  RH  039%=      5-min Rain = 0
KLE1 241939Z 17010KT 32/17 A2974 RMK A01 T03230169  RH  040%=      5-min Rain = 0
KLE1 241940Z 18012KT 32/17 A2973 RMK A01 T03230168  RH  040%=      5-min Rain = 0
KLE1 241941Z 18012KT 32/17 A2973 RMK A01 T03240170  RH  040%=      5-min Rain = 0
KLE1 241942Z 16016KT 33/17 A2973 RMK A01 T03280172  RH  039%=      5-min Rain = 0
KLE1 241943Z 16013KT 33/17 A2973 RMK A01 T03290171  RH  039%=      5-min Rain = 0
KLE1 241944Z 16012KT 33/18 A2973 RMK A01 T03300175  RH  040%=      5-min Rain = 0
KLE1 241945Z 14016KT 34/17 A2973 RMK A01 T03350171  RH  038%=      5-min Rain = 0
KLE1 241946Z 16015KT 33/17 A2973 RMK A01 T03330172  RH  038%=      5-min Rain = 0
KLE1 241947Z 17010KT 33/17 A2973 RMK A01 T03310173  RH  039%=      5-min Rain = 0
KLE1 241948Z 21012G18KT 33/16 A2973 RMK A01 T03320163  RH  037%=      5-min Rain = 0
KLE1 241949Z 21010KT 33/16 A2973 RMK A01 T03320158  RH  035%=      5-min Rain = 0
KLE1 241950Z 18013G18KT 33/16 A2973 RMK A01 T03300162  RH  036%=      5-min Rain = 0
KLE1 241951Z 18016KT 33/17 A2973 RMK A01 T03340167  RH  037%=      5-min Rain = 0
KLE1 241952Z 18015KT 34/17 A2973 RMK A01 T03350165  RH  036%=      5-min Rain = 0
KLE1 241953Z 19017KT 34/16 A2973 RMK A01 T03350164  RH  036%=      5-min Rain = 0
KLE1 241954Z 18015KT 34/17 A2973 RMK A01 T03380165  RH  036%=      5-min Rain = 0
KLE1 241955Z 20011KT 34/16 A2973 RMK A01 T03350163  RH  036%=      5-min Rain = 0
KLE1 241956Z 19014KT 33/16 A2973 RMK A01 T03300163  RH  037%=      5-min Rain = 0
KLE1 241957Z 17010KT 33/16 A2973 RMK A01 T03310164  RH  037%=      5-min Rain = 0
KLE1 241958Z 17013KT 33/16 A2973 RMK A01 T03320163  RH  036%=      5-min Rain = 0
KLE1 241959Z 17014G19KT 33/16 A2973 RMK A01 T03340162  RH  036%=      5-min Rain = 0
KLE1 242000Z 18014KT 33/16 A2973 RMK A01 T03330163  RH  036%=      5-min Rain = 0
KLE1 242001Z 16012KT 33/16 A2973 RMK A01 T03300163  RH  037%=      5-min Rain = 0
KLE1 242002Z 18016KT 33/16 A2972 RMK A01 T03280163  RH  037%=      5-min Rain = 0
KLE1 242003Z 19013KT 33/16 A2973 RMK A01 T03310163  RH  036%=      5-min Rain = 0
KLE1 242004Z 18010KT 33/16 A2973 RMK A01 T03330160  RH  036%=      5-min Rain = 0
KLE1 242005Z 19012KT 33/16 A2973 RMK A01 T03330162  RH  036%=      5-min Rain = 0
KLE1 242006Z 19015G20KT 33/16 A2972 RMK A01 T03320163  RH  036%=      5-min Rain = 0
KLE1 242007Z 17013KT 33/16 A2972 RMK A01 T03310164  RH  037%=      5-min Rain = 0
KLE1 242008Z 16011KT 33/17 A2972 RMK A01 T03300165  RH  037%=      5-min Rain = 0
KLE1 242009Z 17013KT 33/17 A2972 RMK A01 T03310169  RH  038%=      5-min Rain = 0
KLE1 242010Z 17012KT 34/17 A2972 RMK A01 T03360172  RH  038%=      5-min Rain = 0
KLE1 242011Z 16011KT 34/17 A2972 RMK A01 T03360169  RH  037%=      5-min Rain = 0
KLE1 242012Z 14010KT 33/17 A2972 RMK A01 T03330171  RH  038%=      5-min Rain = 0
KLE1 242013Z 16009KT 34/17 A2972 RMK A01 T03350171  RH  038%=      5-min Rain = 0
KLE1 242014Z 19008KT 34/17 A2972 RMK A01 T03370168  RH  036%=      5-min Rain = 0
KLE1 242015Z 20011KT 34/16 A2972 RMK A01 T03380155  RH  033%=      5-min Rain = 0
KLE1 242016Z 21013KT 34/15 A2972 RMK A01 T03380149  RH  032%=      5-min Rain = 0
KLE1 242017Z 21011KT 34/15 A2972 RMK A01 T03370145  RH  032%=      5-min Rain = 0
KLE1 242018Z 20011KT 34/14 A2972 RMK A01 T03390144  RH  031%=      5-min Rain = 0
KLE1 242019Z 21005G10KT 34/14 A2972 RMK A01 T03410141  RH  030%=      5-min Rain = 0
KLE1 242020Z 19007KT 34/15 A2972 RMK A01 T03390145  RH  031%=      5-min Rain = 0
KLE1 242021Z 18010KT 34/15 A2972 RMK A01 T03400148  RH  032%=      5-min Rain = 0
KLE1 242022Z 17013KT 34/16 A2972 RMK A01 T03410163  RH  035%=      5-min Rain = 0
KLE1 242023Z 17017KT 34/16 A2972 RMK A01 T03420162  RH  034%=      5-min Rain = 0
KLE1 242024Z 18012G17KT 34/16 A2972 RMK A01 T03370160  RH  035%=      5-min Rain = 0
KLE1 242025Z 17008KT 33/16 A2971 RMK A01 T03340160  RH  035%=      5-min Rain = 0
KLE1 242026Z 17013KT 33/17 A2971 RMK A01 T03330165  RH  037%=      5-min Rain = 0
KLE1 242027Z 17015KT 34/16 A2971 RMK A01 T03390164  RH  035%=      5-min Rain = 0
KLE1 242028Z 17014G19KT 34/16 A2971 RMK A01 T03400164  RH  035%=      5-min Rain = 0
KLE1 242029Z 18013G19KT 34/16 A2971 RMK A01 T03380160  RH  034%=      5-min Rain = 0
KLE1 242030Z 17013G18KT 33/16 A2971 RMK A01 T03340158  RH  035%=      5-min Rain = 0
KLE1 242031Z 16010KT 33/16 A2971 RMK A01 T03320160  RH  036%=      5-min Rain = 0
KLE1 242032Z 15009KT 33/16 A2971 RMK A01 T03330160  RH  036%=      5-min Rain = 0
KLE1 242033Z 16009G18KT 33/17 A2971 RMK A01 T03330165  RH  037%=      5-min Rain = 0
KLE1 242034Z 15015KT 33/17 A2971 RMK A01 T03340170  RH  038%=      5-min Rain = 0
KLE1 242035Z 16016KT 33/17 A2971 RMK A01 T03340172  RH  038%=      5-min Rain = 0
KLE1 242036Z 18013KT 34/16 A2971 RMK A01 T03370164  RH  036%=      5-min Rain = 0
KLE1 242037Z 17012KT 34/16 A2971 RMK A01 T03400160  RH  034%=      5-min Rain = 0
KLE1 242038Z 17011KT 34/17 A2971 RMK A01 T03410170  RH  036%=      5-min Rain = 0
KLE1 242039Z 18009KT 34/16 A2971 RMK A01 T03400162  RH  035%=      5-min Rain = 0
KLE1 242040Z 19012G17KT 34/16 A2971 RMK A01 T03370158  RH  034%=      5-min Rain = 0
KLE1 242041Z 19009KT 34/16 A2971 RMK A01 T03350157  RH  035%=      5-min Rain = 0
KLE1 242042Z 18009KT 33/16 A2971 RMK A01 T03320160  RH  036%=      5-min Rain = 0
KLE1 242043Z 19007KT 33/17 A2971 RMK A01 T03340167  RH  037%=      5-min Rain = 0
KLE1 242044Z 16011KT 34/17 A2971 RMK A01 T03350169  RH  037%=      5-min Rain = 0
KLE1 242045Z 15012KT 34/17 A2971 RMK A01 T03380170  RH  037%=      5-min Rain = 0
KLE1 242046Z 14015KT 34/17 A2971 RMK A01 T03390166  RH  036%=      5-min Rain = 0
KLE1 242047Z 16019G30KT 34/17 A297 RMK A01 T03390165  RH  035%=      5-min Rain = 0
KLE1 242048Z 17016KT 34/17 A297 RMK A01 T03400166  RH  035%=      5-min Rain = 0
KLE1 242049Z 16017KT 34/17 A297 RMK A01 T03420165  RH  035%=      5-min Rain = 0
KLE1 242050Z 16016KT 34/17 A297 RMK A01 T03410165  RH  035%=      5-min Rain = 0
KLE1 242051Z 17016KT 34/17 A297 RMK A01 T03410165  RH  035%=      5-min Rain = 0
KLE1 242052Z 16012KT 34/17 A2971 RMK A01 T03390166  RH  035%=      5-min Rain = 0
KLE1 242053Z 15010KT 34/16 A297 RMK A01 T03370163  RH  035%=      5-min Rain = 0
KLE1 242054Z 17009KT 34/17 A297 RMK A01 T03350167  RH  037%=      5-min Rain = 0
KLE1 242055Z 15011KT 34/17 A297 RMK A01 T03370167  RH  036%=      5-min Rain = 0
KLE1 242056Z 14014G20KT 34/16 A297 RMK A01 T03350164  RH  036%=      5-min Rain = 0
KLE1 242057Z 15016KT 33/16 A297 RMK A01 T03320160  RH  036%=      5-min Rain = 0
KLE1 242058Z 15014KT 33/16 A297 RMK A01 T03300158  RH  036%=      5-min Rain = 0
KLE1 242059Z 15013KT 33/16 A297 RMK A01 T03300159  RH  036%=      5-min Rain = 0
KLE1 242100Z 15013KT 33/16 A297 RMK A01 T03320163  RH  036%=      5-min Rain = 0
KLE1 242101Z 15012KT 33/17 A297 RMK A01 T03320166  RH  037%=      5-min Rain = 0
KLE1 242102Z 15011KT 33/17 A297 RMK A01 T03330167  RH  037%=      5-min Rain = 0
KLE1 242103Z 17013KT 33/17 A297 RMK A01 T03330169  RH  037%=      5-min Rain = 0
KLE1 242104Z 17012KT 34/17 A297 RMK A01 T03350171  RH  038%=      5-min Rain = 0
KLE1 242105Z 14014KT 34/17 A297 RMK A01 T03370172  RH  037%=      5-min Rain = 0
KLE1 242106Z 15017KT 34/17 A2969 RMK A01 T03380171  RH  037%=      5-min Rain = 0
KLE1 242107Z 15014KT 34/17 A2969 RMK A01 T03370171  RH  037%=      5-min Rain = 0
KLE1 242108Z 14009KT 34/17 A2969 RMK A01 T03360170  RH  037%=      5-min Rain = 0
KLE1 242109Z 14012KT 33/17 A2969 RMK A01 T03340171  RH  038%=      5-min Rain = 0
KLE1 242110Z 14016KT 34/17 A2969 RMK A01 T03370172  RH  037%=      5-min Rain = 0
KLE1 242111Z 12013KT 34/17 A2969 RMK A01 T03350170  RH  037%=      5-min Rain = 0
KLE1 242112Z 14013KT 34/17 A2969 RMK A01 T03350172  RH  038%=      5-min Rain = 0
KLE1 242113Z 14014KT 34/17 A2969 RMK A01 T03390169  RH  036%=      5-min Rain = 0
KLE1 242114Z 14014KT 34/17 A2969 RMK A01 T03370171  RH  037%=      5-min Rain = 0
KLE1 242115Z 17014KT 33/17 A2969 RMK A01 T03340167  RH  037%=      5-min Rain = 0
KLE1 242116Z 16011KT 33/17 A2969 RMK A01 T03290166  RH  038%=      5-min Rain = 0
KLE1 242117Z 15015KT 33/17 A2969 RMK A01 T03290168  RH  038%=      5-min Rain = 0
KLE1 242118Z 14012KT 33/17 A2969 RMK A01 T03310169  RH  038%=      5-min Rain = 0
KLE1 242119Z 15010KT 33/17 A2969 RMK A01 T03290166  RH  038%=      5-min Rain = 0
KLE1 242120Z 14013KT 33/17 A2969 RMK A01 T03250166  RH  039%=      5-min Rain = 0
KLE1 242121Z 19013KT 32/17 A2969 RMK A01 T03240165  RH  039%=      5-min Rain = 0
KLE1 242122Z 19009KT 32/17 A2969 RMK A01 T03230165  RH  039%=      5-min Rain = 0
KLE1 242123Z 18010KT 32/17 A2969 RMK A01 T03230167  RH  039%=      5-min Rain = 0
KLE1 242124Z 17011KT 33/17 A2969 RMK A01 T03260166  RH  038%=      5-min Rain = 0
KLE1 242125Z 18014G19KT 33/17 A2969 RMK A01 T03250165  RH  038%=      5-min Rain = 0
KLE1 242126Z 17013KT 32/17 A2969 RMK A01 T03240167  RH  039%=      5-min Rain = 0
KLE1 242127Z 16011KT 33/17 A2969 RMK A01 T03270169  RH  039%=      5-min Rain = 0
KLE1 242128Z 15013KT 33/17 A2968 RMK A01 T03290168  RH  038%=      5-min Rain = 0
KLE1 242129Z 16016KT 33/17 A2968 RMK A01 T03320168  RH  038%=      5-min Rain = 0
KLE1 242130Z 16016KT 33/17 A2968 RMK A01 T03340168  RH  037%=      5-min Rain = 0
KLE1 242131Z 14016KT 33/17 A2968 RMK A01 T03320168  RH  038%=      5-min Rain = 0
KLE1 242132Z 14016KT 33/17 A2968 RMK A01 T03320168  RH  038%=      5-min Rain = 0
KLE1 242133Z 15012KT 33/17 A2968 RMK A01 T03310168  RH  038%=      5-min Rain = 0
KLE1 242134Z 16010KT 33/17 A2968 RMK A01 T03310169  RH  038%=      5-min Rain = 0
KLE1 242135Z 14015KT 33/17 A2968 RMK A01 T03320169  RH  038%=      5-min Rain = 0
KLE1 242136Z 15015KT 33/17 A2968 RMK A01 T03340169  RH  037%=      5-min Rain = 0
KLE1 242137Z 14013KT 33/17 A2968 RMK A01 T03330167  RH  037%=      5-min Rain = 0
KLE1 242138Z 15014KT 33/17 A2968 RMK A01 T03320168  RH  038%=      5-min Rain = 0
KLE1 242139Z 14013KT 33/17 A2968 RMK A01 T03290165  RH  038%=      5-min Rain = 0
KLE1 242140Z 13013KT 33/17 A2968 RMK A01 T03270166  RH  038%=      5-min Rain = 0
KLE1 242141Z 13012KT 33/17 A2968 RMK A01 T03270167  RH  038%=      5-min Rain = 0
KLE1 242142Z 13015KT 33/17 A2968 RMK A01 T03310170  RH  038%=      5-min Rain = 0
KLE1 242143Z 13018KT 33/17 A2967 RMK A01 T03340168  RH  037%=      5-min Rain = 0
KLE1 242144Z 14016G21KT 33/17 A2967 RMK A01 T03330169  RH  037%=      5-min Rain = 0
KLE1 242145Z 13015KT 33/17 A2967 RMK A01 T03340168  RH  037%=      5-min Rain = 0
KLE1 242146Z 13013KT 34/17 A2967 RMK A01 T03360168  RH  037%=      5-min Rain = 0
KLE1 242147Z 13014KT 34/17 A2967 RMK A01 T03360169  RH  037%=      5-min Rain = 0
KLE1 242148Z 13015KT 34/17 A2967 RMK A01 T03350168  RH  037%=      5-min Rain = 0
KLE1 242149Z 12013KT 34/17 A2967 RMK A01 T03350167  RH  037%=      5-min Rain = 0
KLE1 242150Z 13018KT 33/17 A2967 RMK A01 T03340169  RH  037%=      5-min Rain = 0
KLE1 242151Z 14017KT 34/17 A2967 RMK A01 T03350167  RH  037%=      5-min Rain = 0
KLE1 242152Z 14015KT 33/17 A2967 RMK A01 T03320167  RH  037%=      5-min Rain = 0
KLE1 242153Z 14012KT 33/17 A2967 RMK A01 T03310167  RH  038%=      5-min Rain = 0
KLE1 242154Z 13013G23KT 33/17 A2967 RMK A01 T03300167  RH  038%=      5-min Rain = 0
KLE1 242155Z 13017KT 33/17 A2967 RMK A01 T03320167  RH  037%=      5-min Rain = 0
KLE1 242156Z 12015KT 34/17 A2967 RMK A01 T03350166  RH  037%=      5-min Rain = 0
KLE1 242157Z 12016KT 34/17 A2967 RMK A01 T03350167  RH  037%=      5-min Rain = 0
KLE1 242158Z 13014KT 33/17 A2967 RMK A01 T03340166  RH  037%=      5-min Rain = 0
KLE1 242159Z 14014KT 34/17 A2967 RMK A01 T03350168  RH  037%=      5-min Rain = 0
KLE1 242200Z 15011KT 34/17 A2967 RMK A01 T03370166  RH  036%=      5-min Rain = 0
KLE1 242201Z 16014KT 34/17 A2967 RMK A01 T03360166  RH  036%=      5-min Rain = 0
KLE1 242202Z 15018KT 34/16 A2966 RMK A01 T03380164  RH  035%=      5-min Rain = 0
KLE1 242203Z 17016KT 34/16 A2967 RMK A01 T03370161  RH  035%=      5-min Rain = 0
KLE1 242204Z 17014KT 33/16 A2967 RMK A01 T03310158  RH  035%=      5-min Rain = 0
KLE1 242205Z 16013KT 33/16 A2967 RMK A01 T03260159  RH  037%=      5-min Rain = 0
KLE1 242206Z 15012KT 32/16 A2966 RMK A01 T03230161  RH  038%=      5-min Rain = 0
KLE1 242207Z 15010KT 32/16 A2966 RMK A01 T03230161  RH  038%=      5-min Rain = 0
KLE1 242208Z 13012KT 32/16 A2966 RMK A01 T03240162  RH  038%=      5-min Rain = 0
KLE1 242209Z 14010KT 32/16 A2966 RMK A01 T03240162  RH  038%=      5-min Rain = 0
KLE1 242210Z 15014KT 33/16 A2966 RMK A01 T03260163  RH  038%=      5-min Rain = 0
KLE1 242211Z 14012KT 33/16 A2966 RMK A01 T03280163  RH  037%=      5-min Rain = 0
KLE1 242212Z 14009KT 33/16 A2966 RMK A01 T03270163  RH  037%=      5-min Rain = 0
KLE1 242213Z 16010KT 33/16 A2966 RMK A01 T03270164  RH  038%=      5-min Rain = 0
KLE1 242214Z 15012KT 33/16 A2966 RMK A01 T03270164  RH  037%=      5-min Rain = 0
KLE1 242215Z 15012KT 33/16 A2966 RMK A01 T03250162  RH  038%=      5-min Rain = 0
KLE1 242216Z 14011KT 32/16 A2966 RMK A01 T03230159  RH  037%=      5-min Rain = 0
KLE1 242217Z 15010G16KT 32/16 A2966 RMK A01 T03210160  RH  038%=      5-min Rain = 0
KLE1 242218Z 16015KT 32/17 A2966 RMK A01 T03220166  RH  039%=      5-min Rain = 0
KLE1 242219Z 14012KT 33/17 A2966 RMK A01 T03250169  RH  039%=      5-min Rain = 0
KLE1 242220Z 12011KT 33/17 A2966 RMK A01 T03310170  RH  038%=      5-min Rain = 0
KLE1 242221Z 12011KT 33/17 A2966 RMK A01 T03320169  RH  038%=      5-min Rain = 0
KLE1 242222Z 15017KT 33/17 A2966 RMK A01 T03330171  RH  038%=      5-min Rain = 0
KLE1 242223Z 14017KT 33/17 A2966 RMK A01 T03340168  RH  037%=      5-min Rain = 0
KLE1 242224Z 14015KT 33/17 A2965 RMK A01 T03290166  RH  038%=      5-min Rain = 0
KLE1 242225Z 15014KT 32/17 A2965 RMK A01 T03240167  RH  039%=      5-min Rain = 0
KLE1 242226Z 14012KT 32/17 A2965 RMK A01 T03210165  RH  039%=      5-min Rain = 0
KLE1 242227Z 13010KT 32/17 A2965 RMK A01 T03190166  RH  040%=      5-min Rain = 0
KLE1 242228Z 14009KT 32/17 A2965 RMK A01 T03170166  RH  040%=      5-min Rain = 0
KLE1 242229Z 14012G17KT 32/17 A2965 RMK A01 T03180168  RH  041%=      5-min Rain = 0
KLE1 242230Z 13014KT 32/17 A2965 RMK A01 T03230172  RH  041%=      5-min Rain = 0
KLE1 242231Z 12014KT 33/17 A2965 RMK A01 T03300172  RH  039%=      5-min Rain = 0
KLE1 242232Z 14018KT 33/17 A2965 RMK A01 T03320172  RH  038%=      5-min Rain = 0
KLE1 242233Z 16014KT 33/17 A2965 RMK A01 T03330168  RH  037%=      5-min Rain = 0
KLE1 242234Z 16014KT 33/16 A2965 RMK A01 T03340163  RH  036%=      5-min Rain = 0
KLE1 242235Z 14015KT 34/17 A2965 RMK A01 T03370169  RH  037%=      5-min Rain = 0
KLE1 242236Z 14015KT 33/17 A2965 RMK A01 T03340167  RH  037%=      5-min Rain = 0
KLE1 242237Z 13013KT 33/17 A2965 RMK A01 T03320168  RH  038%=      5-min Rain = 0
KLE1 242238Z 14016KT 33/17 A2965 RMK A01 T03320167  RH  037%=      5-min Rain = 0
KLE1 242239Z 16013KT 33/17 A2965 RMK A01 T03330167  RH  037%=      5-min Rain = 0
KLE1 242240Z 17015KT 34/17 A2965 RMK A01 T03350168  RH  037%=      5-min Rain = 0
KLE1 242241Z 17014KT 34/17 A2965 RMK A01 T03360169  RH  037%=      5-min Rain = 0
KLE1 242242Z 17012KT 34/17 A2964 RMK A01 T03350169  RH  037%=      5-min Rain = 0
KLE1 242243Z 14017KT 33/17 A2964 RMK A01 T03340169  RH  037%=      5-min Rain = 0
KLE1 242244Z 13017KT 33/17 A2964 RMK A01 T03330168  RH  037%=      5-min Rain = 0
KLE1 242245Z 13014KT 33/17 A2964 RMK A01 T03310168  RH  038%=      5-min Rain = 0
KLE1 242246Z 13015KT 33/17 A2964 RMK A01 T03320168  RH  038%=      5-min Rain = 0
KLE1 242247Z 13016KT 33/17 A2964 RMK A01 T03310168  RH  038%=      5-min Rain = 0
KLE1 242248Z 13012KT 33/17 A2964 RMK A01 T03280167  RH  038%=      5-min Rain = 0
KLE1 242249Z 14012KT 33/17 A2964 RMK A01 T03290169  RH  038%=      5-min Rain = 0
KLE1 242250Z 16013KT 33/17 A2964 RMK A01 T03310167  RH  038%=      5-min Rain = 0
KLE1 242251Z 16014G20KT 33/17 A2964 RMK A01 T03310168  RH  038%=      5-min Rain = 0
KLE1 242252Z 16019KT 33/17 A2964 RMK A01 T03330170  RH  038%=      5-min Rain = 0
KLE1 242253Z 16018KT 33/17 A2964 RMK A01 T03340169  RH  037%=      5-min Rain = 0
KLE1 242254Z 16017KT 33/17 A2964 RMK A01 T03320167  RH  037%=      5-min Rain = 0
KLE1 242255Z 14018KT 33/17 A2964 RMK A01 T03320167  RH  037%=      5-min Rain = 0
KLE1 242256Z 14017KT 33/17 A2964 RMK A01 T03310165  RH  037%=      5-min Rain = 0
KLE1 242257Z 14020KT 33/17 A2963 RMK A01 T03300167  RH  038%=      5-min Rain = 0
KLE1 242258Z 14019KT 33/17 A2963 RMK A01 T03310166  RH  037%=      5-min Rain = 0
KLE1 242259Z 15016KT 33/17 A2963 RMK A01 T03300167  RH  038%=      5-min Rain = 0
KLE1 242300Z 15015KT 33/17 A2963 RMK A01 T03290166  RH  038%=      5-min Rain = 0
KLE1 242301Z 13015KT 33/17 A2963 RMK A01 T03290166  RH  038%=      5-min Rain = 0
KLE1 242302Z 13015KT 33/17 A2963 RMK A01 T03280165  RH  038%=      5-min Rain = 0
KLE1 242303Z 13015KT 33/17 A2963 RMK A01 T03280166  RH  038%=      5-min Rain = 0
KLE1 242304Z 14016KT 33/17 A2963 RMK A01 T03300166  RH  038%=      5-min Rain = 0
KLE1 242305Z 13018KT 33/17 A2963 RMK A01 T03310165  RH  037%=      5-min Rain = 0
KLE1 242306Z 13016KT 33/16 A2963 RMK A01 T03300164  RH  037%=      5-min Rain = 0
KLE1 242307Z 13016KT 33/17 A2963 RMK A01 T03290165  RH  037%=      5-min Rain = 0
KLE1 242308Z 14015KT 33/17 A2963 RMK A01 T03280166  RH  038%=      5-min Rain = 0
KLE1 242309Z 15013KT 33/17 A2963 RMK A01 T03280166  RH  038%=      5-min Rain = 0
KLE1 242310Z 15013KT 33/16 A2963 RMK A01 T03270164  RH  038%=      5-min Rain = 0
KLE1 242311Z 16012KT 33/16 A2963 RMK A01 T03250163  RH  038%=      5-min Rain = 0
KLE1 242312Z 16015KT 33/16 A2963 RMK A01 T03260164  RH  038%=      5-min Rain = 0
KLE1 242313Z 14015KT 33/17 A2963 RMK A01 T03310168  RH  038%=      5-min Rain = 0
KLE1 242314Z 15015KT 33/17 A2963 RMK A01 T03330168  RH  037%=      5-min Rain = 0
KLE1 242315Z 16012KT 33/17 A2963 RMK A01 T03320167  RH  037%=      5-min Rain = 0
KLE1 242316Z 17012KT 33/17 A2963 RMK A01 T03330167  RH  037%=      5-min Rain = 0
KLE1 242317Z 16012KT 33/17 A2963 RMK A01 T03330167  RH  037%=      5-min Rain = 0
KLE1 242318Z 15014KT 33/17 A2962 RMK A01 T03320167  RH  037%=      5-min Rain = 0
KLE1 242319Z 15010KT 33/17 A2962 RMK A01 T03320169  RH  038%=      5-min Rain = 0
KLE1 242320Z 14017G23KT 33/17 A2962 RMK A01 T03310170  RH  038%=      5-min Rain = 0
KLE1 242321Z 14020KT 33/17 A2962 RMK A01 T03300167  RH  038%=      5-min Rain = 0
KLE1 242322Z 13017KT 33/17 A2962 RMK A01 T03280167  RH  038%=      5-min Rain = 0
KLE1 242323Z 13017KT 33/17 A2962 RMK A01 T03270167  RH  038%=      5-min Rain = 0
KLE1 242324Z 14019KT 33/17 A2962 RMK A01 T03260168  RH  039%=      5-min Rain = 0
KLE1 242325Z 14017KT 33/17 A2962 RMK A01 T03260168  RH  039%=      5-min Rain = 0
KLE1 242326Z 14018KT 33/17 A2961 RMK A01 T03270168  RH  038%=      5-min Rain = 0
KLE1 242327Z 14017KT 33/17 A2961 RMK A01 T03250167  RH  039%=      5-min Rain = 0
KLE1 242328Z 13016KT 32/17 A2961 RMK A01 T03240168  RH  039%=      5-min Rain = 0
KLE1 242329Z 13016KT 32/17 A2961 RMK A01 T03240167  RH  039%=      5-min Rain = 0
KLE1 242330Z 14015KT 32/17 A2961 RMK A01 T03240168  RH  039%=      5-min Rain = 0
KLE1 242331Z 14017KT 32/17 A2961 RMK A01 T03210166  RH  039%=      5-min Rain = 0
KLE1 242332Z 14016KT 32/17 A2961 RMK A01 T03200166  RH  040%=      5-min Rain = 0
KLE1 242333Z 15016KT 32/17 A2962 RMK A01 T03200166  RH  040%=      5-min Rain = 0
KLE1 242334Z 13017KT 32/17 A2961 RMK A01 T03210165  RH  039%=      5-min Rain = 0
KLE1 242335Z 13015KT 32/16 A2962 RMK A01 T03230164  RH  038%=      5-min Rain = 0
KLE1 242336Z 15020KT 32/17 A2961 RMK A01 T03240165  RH  038%=      5-min Rain = 0
KLE1 242337Z 15017KT 32/17 A2962 RMK A01 T03240165  RH  039%=      5-min Rain = 0
KLE1 242338Z 15019KT 32/16 A2961 RMK A01 T03230163  RH  038%=      5-min Rain = 0
KLE1 242339Z 15018KT 32/16 A2961 RMK A01 T03190162  RH  039%=      5-min Rain = 0
KLE1 242340Z 16017KT 32/16 A2961 RMK A01 T03160161  RH  039%=      5-min Rain = 0
KLE1 242341Z 15017KT 32/16 A2961 RMK A01 T03150163  RH  040%=      5-min Rain = 0
KLE1 242342Z 15016KT 31/16 A2961 RMK A01 T03140164  RH  040%=      5-min Rain = 0
KLE1 242343Z 16019KT 31/17 A2961 RMK A01 T03140165  RH  041%=      5-min Rain = 0
KLE1 242344Z 15019KT 31/17 A2961 RMK A01 T03130165  RH  041%=      5-min Rain = 0
KLE1 242345Z 14017KT 31/17 A2962 RMK A01 T03120165  RH  041%=      5-min Rain = 0
KLE1 242346Z 14018KT 31/17 A2962 RMK A01 T03110169  RH  043%=      5-min Rain = 0
KLE1 242347Z 16017KT 31/17 A2962 RMK A01 T03110171  RH  043%=      5-min Rain = 0
KLE1 242348Z 15018KT 31/17 A2962 RMK A01 T03100172  RH  043%=      5-min Rain = 0
KLE1 242349Z 14017G22KT 31/17 A2962 RMK A01 T03100173  RH  044%=      5-min Rain = 0
KLE1 242350Z 13021KT 31/18 A2962 RMK A01 T03100175  RH  044%=      5-min Rain = 0
KLE1 242351Z 14022KT 31/18 A2962 RMK A01 T03100176  RH  045%=      5-min Rain = 0
KLE1 242352Z 14021KT 31/18 A2962 RMK A01 T03090176  RH  045%=      5-min Rain = 0
KLE1 242353Z 13020KT 31/18 A2962 RMK A01 T03080177  RH  045%=      5-min Rain = 0
KLE1 242354Z 13021KT 31/18 A2962 RMK A01 T03070177  RH  046%=      5-min Rain = 0
KLE1 242355Z 14018KT 31/18 A2962 RMK A01 T03060177  RH  046%=      5-min Rain = 0
KLE1 242356Z 13021KT 31/18 A2962 RMK A01 T03060178  RH  046%=      5-min Rain = 0
KLE1 242357Z 13020KT 31/18 A2962 RMK A01 T03060179  RH  047%=      5-min Rain = 0
KLE1 242358Z 13017KT 31/18 A2962 RMK A01 T03060180  RH  047%=      5-min Rain = 0
KLE1 242359Z 13017KT 31/18 A2962 RMK A01 T03050181  RH  048%=      5-min Rain = 0
KLE1 250000Z 13017KT 31/18 A2962 RMK A01 T03050181  RH  048%=      5-min Rain = 0
KLE1 250001Z 13017KT 31/18 A2962 RMK A01 T03050182  RH  048%=      5-min Rain = 0
KLE1 250002Z 13019KT 31/18 A2962 RMK A01 T03050182  RH  048%=      5-min Rain = 0
KLE1 250003Z 13021KT 31/18 A2962 RMK A01 T03050182  RH  048%=      5-min Rain = 0
KLE1 250004Z 13019G24KT 30/18 A2962 RMK A01 T03040182  RH  048%=      5-min Rain = 0
KLE1 250005Z 13019KT 30/18 A2962 RMK A01 T03040182  RH  048%=      5-min Rain = 0
KLE1 250006Z 13019KT 30/18 A2962 RMK A01 T03030182  RH  048%=      5-min Rain = 0
KLE1 250007Z 13021KT 30/18 A2962 RMK A01 T03030182  RH  048%=      5-min Rain = 0
KLE1 250008Z 13021KT 30/18 A2962 RMK A01 T03030182  RH  048%=      5-min Rain = 0
KLE1 250009Z 14019KT 30/18 A2963 RMK A01 T03040182  RH  048%=      5-min Rain = 0
KLE1 250010Z 13021KT 30/18 A2963 RMK A01 T03030182  RH  048%=      5-min Rain = 0
KLE1 250011Z 13020G25KT 30/18 A2963 RMK A01 T03030182  RH  048%=      5-min Rain = 0
KLE1 250012Z 13021KT 30/18 A2963 RMK A01 T03030182  RH  048%=      5-min Rain = 0
KLE1 250013Z 13019KT 30/18 A2963 RMK A01 T03030182  RH  048%=      5-min Rain = 0
KLE1 250014Z 12019KT 30/18 A2963 RMK A01 T03030182  RH  049%=      5-min Rain = 0
KLE1 250015Z 13017KT 30/18 A2964 RMK A01 T03020182  RH  049%=      5-min Rain = 0
KLE1 250016Z 13016KT 30/18 A2964 RMK A01 T03020182  RH  049%=      5-min Rain = 0
KLE1 250017Z 13016G23KT 30/18 A2964 RMK A01 T03020183  RH  049%=      5-min Rain = 0
KLE1 250018Z 12019KT 30/18 A2964 RMK A01 T03020183  RH  049%=      5-min Rain = 0
KLE1 250019Z 13017G22KT 30/18 A2964 RMK A01 T03020182  RH  049%=      5-min Rain = 0
KLE1 250020Z 13018KT 30/18 A2964 RMK A01 T03020182  RH  049%=      5-min Rain = 0
KLE1 250021Z 13018KT 30/18 A2963 RMK A01 T03020182  RH  049%=      5-min Rain = 0
KLE1 250022Z 14017KT 30/18 A2963 RMK A01 T03010182  RH  049%=      5-min Rain = 0
KLE1 250023Z 13019KT 30/18 A2963 RMK A01 T03010182  RH  049%=      5-min Rain = 0
KLE1 250024Z 12020KT 30/18 A2963 RMK A01 T03010181  RH  049%=      5-min Rain = 0
KLE1 250025Z 13017KT 30/18 A2963 RMK A01 T03010181  RH  049%=      5-min Rain = 0
KLE1 250026Z 13018KT 30/18 A2963 RMK A01 T03010182  RH  049%=      5-min Rain = 0
KLE1 250027Z 12019KT 30/18 A2963 RMK A01 T03000182  RH  049%=      5-min Rain = 0
KLE1 250028Z 12019KT 30/18 A2962 RMK A01 T03000182  RH  049%=      5-min Rain = 0
KLE1 250029Z 12021KT 30/18 A2962 RMK A01 T03000182  RH  049%=      5-min Rain = 0
KLE1 250030Z 13022KT 30/18 A2962 RMK A01 T02990181  RH  049%=      5-min Rain = 0
KLE1 250031Z 12025KT 30/18 A2962 RMK A01 T02990181  RH  049%=      5-min Rain = 0
KLE1 250032Z 13021KT 30/18 A2962 RMK A01 T02990181  RH  049%=      5-min Rain = 0
KLE1 250033Z 13020KT 30/18 A2962 RMK A01 T02980181  RH  049%=      5-min Rain = 0
KLE1 250034Z 13018KT 30/18 A2962 RMK A01 T02980182  RH  050%=      5-min Rain = 0
KLE1 250035Z 12018KT 30/18 A2962 RMK A01 T02980182  RH  050%=      5-min Rain = 0
KLE1 250036Z 12021KT 30/18 A2962 RMK A01 T02970183  RH  050%=      5-min Rain = 0
KLE1 250037Z 13022KT 30/18 A2962 RMK A01 T02970183  RH  050%=      5-min Rain = 0
KLE1 250038Z 13023KT 30/18 A2961 RMK A01 T02970182  RH  050%=      5-min Rain = 0
KLE1 250039Z 12021KT 30/18 A2961 RMK A01 T02970182  RH  050%=      5-min Rain = 0
KLE1 250040Z 13018KT 30/18 A2961 RMK A01 T02970183  RH  050%=      5-min Rain = 0
KLE1 250041Z 13019KT 30/18 A2961 RMK A01 T02960182  RH  051%=      5-min Rain = 0
KLE1 250042Z 12022KT 30/18 A2961 RMK A01 T02950182  RH  051%=      5-min Rain = 0
KLE1 250043Z 12023KT 30/18 A2961 RMK A01 T02950181  RH  050%=      5-min Rain = 0
KLE1 250044Z 12021KT 30/18 A2961 RMK A01 T02950181  RH  050%=      5-min Rain = 0
KLE1 250045Z 13022KT 30/18 A2961 RMK A01 T02950181  RH  050%=      5-min Rain = 0
KLE1 250046Z 13021KT 30/18 A2961 RMK A01 T02950181  RH  050%=      5-min Rain = 0
KLE1 250047Z 12019G24KT 30/18 A2962 RMK A01 T02950181  RH  050%=      5-min Rain = 0
KLE1 250048Z 12019KT 30/18 A2961 RMK A01 T02950181  RH  050%=      5-min Rain = 0
KLE1 250049Z 12017KT 29/18 A2962 RMK A01 T02940181  RH  050%=      5-min Rain = 0
KLE1 250050Z 12017KT 29/18 A2962 RMK A01 T02940181  RH  051%=      5-min Rain = 0
KLE1 250051Z 12017G22KT 29/18 A2962 RMK A01 T02940181  RH  051%=      5-min Rain = 0
KLE1 250052Z 12016G21KT 29/18 A2962 RMK A01 T02940182  RH  051%=      5-min Rain = 0
KLE1 250053Z 12017KT 29/18 A2962 RMK A01 T02940181  RH  051%=      5-min Rain = 0
KLE1 250054Z 12017KT 29/18 A2962 RMK A01 T02930181  RH  051%=      5-min Rain = 0
KLE1 250055Z 11018KT 29/18 A2962 RMK A01 T02930181  RH  051%=      5-min Rain = 0
KLE1 250056Z 11018KT 29/18 A2962 RMK A01 T02930181  RH  051%=      5-min Rain = 0
KLE1 250057Z 11017KT 29/18 A2962 RMK A01 T02940181  RH  051%=      5-min Rain = 0
KLE1 250058Z 11019KT 29/18 A2962 RMK A01 T02930180  RH  051%=      5-min Rain = 0
KLE1 250059Z 11017KT 29/18 A2962 RMK A01 T02930180  RH  050%=      5-min Rain = 0
KLE1 250100Z 11019KT 29/18 A2962 RMK A01 T02930179  RH  050%=      5-min Rain = 0
KLE1 250101Z 11018KT 29/18 A2962 RMK A01 T02930180  RH  051%=      5-min Rain = 0
KLE1 250102Z 11018KT 29/18 A2962 RMK A01 T02930180  RH  051%=      5-min Rain = 0
KLE1 250103Z 11021KT 29/18 A2962 RMK A01 T02930180  RH  051%=      5-min Rain = 0
KLE1 250104Z 11020KT 29/18 A2962 RMK A01 T02920179  RH  051%=      5-min Rain = 0
KLE1 250105Z 11019KT 29/18 A2961 RMK A01 T02920180  RH  051%=      5-min Rain = 0
KLE1 250106Z 11021KT 29/18 A2961 RMK A01 T02920180  RH  051%=      5-min Rain = 0
KLE1 250107Z 11022KT 29/18 A2961 RMK A01 T02920180  RH  051%=      5-min Rain = 0
KLE1 250108Z 11021KT 29/18 A2961 RMK A01 T02920179  RH  051%=      5-min Rain = 0
KLE1 250109Z 11022KT 29/18 A296 RMK A01 T02920180  RH  051%=      5-min Rain = 0
KLE1 250110Z 11020KT 29/18 A296 RMK A01 T02920180  RH  051%=      5-min Rain = 0
KLE1 250111Z 11019KT 29/18 A296 RMK A01 T02920179  RH  051%=      5-min Rain = 0
KLE1 250112Z 11021KT 29/18 A296 RMK A01 T02920179  RH  051%=      5-min Rain = 0
KLE1 250113Z 11023KT 29/18 A296 RMK A01 T02920178  RH  050%=      5-min Rain = 0
KLE1 250114Z 11021KT 29/18 A296 RMK A01 T02910178  RH  050%=      5-min Rain = 0
KLE1 250115Z 11021KT 29/18 A296 RMK A01 T02910179  RH  051%=      5-min Rain = 0
KLE1 250116Z 11019KT 29/18 A2961 RMK A01 T02910179  RH  051%=      5-min Rain = 0
KLE1 250117Z 11020G25KT 29/18 A296 RMK A01 T02900179  RH  051%=      5-min Rain = 0
KLE1 250118Z 11024KT 29/18 A296 RMK A01 T02900178  RH  051%=      5-min Rain = 0
KLE1 250119Z 11023KT 29/18 A296 RMK A01 T02900178  RH  051%=      5-min Rain = 0
KLE1 250120Z 11018KT 29/18 A296 RMK A01 T02910178  RH  051%=      5-min Rain = 0
KLE1 250121Z 11018KT 29/18 A296 RMK A01 T02900179  RH  051%=      5-min Rain = 0
KLE1 250122Z 11018KT 29/18 A296 RMK A01 T02890179  RH  051%=      5-min Rain = 0
KLE1 250123Z 11019KT 29/18 A2961 RMK A01 T02890179  RH  051%=      5-min Rain = 0
KLE1 250124Z 12019G24KT 29/18 A2961 RMK A01 T02890179  RH  051%=      5-min Rain = 0
KLE1 250125Z 11021KT 29/18 A2961 RMK A01 T02890178  RH  051%=      5-min Rain = 0
KLE1 250126Z 11020KT 29/18 A2961 RMK A01 T02890178  RH  051%=      5-min Rain = 0
KLE1 250127Z 11019KT 29/18 A2961 RMK A01 T02890178  RH  051%=      5-min Rain = 0
KLE1 250128Z 11020KT 29/18 A2961 RMK A01 T02890177  RH  051%=      5-min Rain = 0
KLE1 250129Z 11018KT 29/18 A2961 RMK A01 T02890177  RH  051%=      5-min Rain = 0
KLE1 250130Z 11018KT 29/18 A2961 RMK A01 T02890177  RH  051%=      5-min Rain = 0
KLE1 250131Z 11019KT 29/18 A2962 RMK A01 T02890177  RH  051%=      5-min Rain = 0
KLE1 250132Z 11020KT 29/18 A2962 RMK A01 T02890176  RH  051%=      5-min Rain = 0
KLE1 250133Z 10018G23KT 29/18 A2962 RMK A01 T02890176  RH  050%=      5-min Rain = 0
KLE1 250134Z 10019KT 29/18 A2962 RMK A01 T02900176  RH  050%=      5-min Rain = 0
KLE1 250135Z 10018KT 29/18 A2962 RMK A01 T02900176  RH  050%=      5-min Rain = 0
KLE1 250136Z 10019KT 29/18 A2962 RMK A01 T02900176  RH  050%=      5-min Rain = 0
KLE1 250137Z 10020KT 29/18 A2962 RMK A01 T02900175  RH  050%=      5-min Rain = 0
KLE1 250138Z 10019KT 29/18 A2962 RMK A01 T02900175  RH  050%=      5-min Rain = 0
KLE1 250139Z 10019KT 29/18 A2962 RMK A01 T02900175  RH  050%=      5-min Rain = 0
KLE1 250140Z 11021KT 29/18 A2962 RMK A01 T02900175  RH  050%=      5-min Rain = 0
KLE1 250141Z 10019KT 29/18 A2962 RMK A01 T02900175  RH  050%=      5-min Rain = 0
KLE1 250142Z 10019KT 29/18 A2963 RMK A01 T02900175  RH  050%=      5-min Rain = 0
KLE1 250143Z 11020KT 29/18 A2963 RMK A01 T02900175  RH  050%=      5-min Rain = 0
KLE1 250144Z 10019KT 29/18 A2963 RMK A01 T02900175  RH  050%=      5-min Rain = 0
KLE1 250145Z 10019KT 29/18 A2964 RMK A01 T02900175  RH  050%=      5-min Rain = 0
KLE1 250146Z 11016KT 29/18 A2964 RMK A01 T02900175  RH  050%=      5-min Rain = 0
KLE1 250147Z 11013KT 29/18 A2965 RMK A01 T02890175  RH  050%=      5-min Rain = 0
KLE1 250148Z 12012KT 29/18 A2966 RMK A01 T02890176  RH  050%=      5-min Rain = 0
KLE1 250149Z 18010G15KT 29/18 A2967 RMK A01 T02890177  RH  051%=      5-min Rain = 0
KLE1 250150Z 25016G24KT 29/16 A2968 RMK A01 T02870158  RH  046%=      5-min Rain = 0
KLE1 250151Z 25025G32KT 27/12 A2967 RMK A01 T02720120  RH  039%=      5-min Rain = 0
KLE1 250152Z 25027KT 25/12 A2966 RMK A01 T02530115  RH  042%=      5-min Rain = 0
KLE1 250153Z 25023G32KT 24/12 A2964 RMK A01 T02430115  RH  045%=      5-min Rain = 0
KLE1 250154Z 26028G36KT 24/11 A2964 RMK A01 T02380112  RH  045%=      5-min Rain = 0
KLE1 250155Z 26018G23KT 24/11 A2964 RMK A01 T02380105  RH  043%=      5-min Rain = 0
KLE1 250156Z 29021G28KT 24/11 A2964 RMK A01 T02380107  RH  044%=      5-min Rain = 0
KLE1 250157Z 30036G45KT 25/10 A2966 RMK A01 T02460103  RH  041%=      5-min Rain = 0
KLE1 250158Z 30038G43KT 25/09 A2968 RMK A01 T02510087  RH  035%=      5-min Rain = 0
KLE1 250159Z 30034G39KT 25/09 A2969 RMK A01 T02500086  RH  035%=      5-min Rain = 0
KLE1 250200Z 30031G40KT 25/09 A2971 RMK A01 T02490092  RH  037%=      5-min Rain = 0
KLE1 250201Z 31035G40KT 24/11 A2972 RMK A01 T02440106  RH  042%=      5-min Rain = 0
KLE1 250202Z 31034G40KT 24/12 A2974 RMK A01 T02360116  RH  047%=      5-min Rain = 0
KLE1 250203Z 31035G40KT 23/12 A2976 RMK A01 T02280122  RH  051%=      5-min Rain = 0
KLE1 250204Z 31033G40KT 22/13 A2977 RMK A01 T02190131  RH  057%=      5-min Rain = 0
KLE1 250205Z 30025KT 21/14 A2979 RMK A01 T02070140  RH  066%=      5-min Rain = 0
KLE1 250206Z 29025G30KT 20/15 A298 RMK A01 T01970149  RH  074%=      5-min Rain = 0.01
KLE1 250207Z 29023KT 19/15 A2981 RMK A01 T01890151  RH  079%=      5-min Rain = 0.03
KLE1 250208Z 28023KT 18/15 A2982 RMK A01 T01790148  RH  082%=      5-min Rain = 0.04
KLE1 250209Z 28024KT 17/14 A2983 RMK A01 T01690141  RH  084%=      5-min Rain = 0.04
KLE1 250210Z 28021KT 16/14 A2983 RMK A01 T01590137  RH  086%=      5-min Rain = 0.05
KLE1 250211Z 28022KT 15/14 A2982 RMK A01 T01530136  RH  089%=      5-min Rain = 0.05
KLE1 250212Z 28021KT 15/14 A2981 RMK A01 T01500135  RH  091%=      5-min Rain = 0.04
KLE1 250213Z 29020KT 15/14 A298 RMK A01 T01480135  RH  092%=      5-min Rain = 0.04
KLE1 250214Z 30020KT 15/14 A2979 RMK A01 T01480137  RH  093%=      5-min Rain = 0.02
KLE1 250215Z 31020KT 15/14 A2977 RMK A01 T01500139  RH  093%=      5-min Rain = 0.04
KLE1 250216Z 32021KT 15/14 A2976 RMK A01 T01500137  RH  092%=      5-min Rain = 0.03
KLE1 250217Z 33017KT 15/13 A2975 RMK A01 T01510133  RH  089%=      5-min Rain = 0.04
KLE1 250218Z 32017KT 15/13 A2974 RMK A01 T01520134  RH  089%=      5-min Rain = 0.02
KLE1 250219Z 31015KT 15/13 A2973 RMK A01 T01520134  RH  089%=      5-min Rain = 0.03
KLE1 250220Z 31014KT 15/13 A2972 RMK A01 T01510133  RH  089%=      5-min Rain = 0.02
KLE1 250221Z 31015G20KT 15/13 A2971 RMK A01 T01510127  RH  086%=      5-min Rain = 0.03
KLE1 250222Z 32012KT 15/13 A297 RMK A01 T01540126  RH  083%=      5-min Rain = 0.02
KLE1 250223Z 31013KT 15/13 A297 RMK A01 T01540126  RH  083%=      5-min Rain = 0.01
KLE1 250224Z 30012KT 15/12 A2969 RMK A01 T01540124  RH  082%=      5-min Rain = 0.01
KLE1 250225Z 29009KT 16/12 A2969 RMK A01 T01570121  RH  079%=      5-min Rain = 0
KLE1 250226Z 29006KT 16/12 A2969 RMK A01 T01600122  RH  078%=      5-min Rain = 0.01
KLE1 250227Z 28005KT 16/12 A2969 RMK A01 T01600121  RH  078%=      5-min Rain = 0
KLE1 250228Z 25004KT 16/12 A297 RMK A01 T01610124  RH  079%=      5-min Rain = 0.01
KLE1 250229Z 22005KT 16/13 A297 RMK A01 T01610125  RH  079%=      5-min Rain = 0
KLE1 250230Z 21008KT 16/13 A297 RMK A01 T01610125  RH  079%=      5-min Rain = 0
KLE1 250231Z 20009KT 17/13 A297 RMK A01 T01650125  RH  077%=      5-min Rain = 0.01
KLE1 250232Z 21014G21KT 17/13 A297 RMK A01 T01700125  RH  075%=      5-min Rain = 0
KLE1 250233Z 20013KT 18/13 A2971 RMK A01 T01780125  RH  071%=      5-min Rain = 0
KLE1 250234Z 20015KT 18/12 A2971 RMK A01 T01830124  RH  069%=      5-min Rain = 0
KLE1 250235Z 20014KT 19/13 A2971 RMK A01 T01860125  RH  068%=      5-min Rain = 0
KLE1 250236Z 20015KT 19/13 A2971 RMK A01 T01870129  RH  069%=      5-min Rain = 0
KLE1 250237Z 23015G21KT 19/13 A2972 RMK A01 T01850126  RH  068%=      5-min Rain = 0
KLE1 250238Z 22016G25KT 19/13 A2972 RMK A01 T01860128  RH  069%=      5-min Rain = 0
KLE1 250239Z 23026G40KT 19/12 A2973 RMK A01 T01910117  RH  062%=      5-min Rain = 0
KLE1 250240Z 24023KT 20/11 A2973 RMK A01 T02020112  RH  056%=      5-min Rain = 0
KLE1 250241Z 28021G30KT 21/12 A2974 RMK A01 T02100116  RH  055%=      5-min Rain = 0
KLE1 250242Z 29020G28KT 21/12 A2976 RMK A01 T02090120  RH  057%=      5-min Rain = 0
KLE1 250243Z 31014G19KT 21/11 A2977 RMK A01 T02060112  RH  055%=      5-min Rain = 0
KLE1 250244Z 33013G18KT 20/12 A2977 RMK A01 T02040117  RH  057%=      5-min Rain = 0
KLE1 250245Z 00009G14KT 20/12 A2978 RMK A01 T01990121  RH  061%=      5-min Rain = 0
KLE1 250246Z 33003KT 19/12 A2979 RMK A01 T01940121  RH  063%=      5-min Rain = 0
KLE1 250247Z 03002KT 19/12 A2979 RMK A01 T01930121  RH  063%=      5-min Rain = 0
KLE1 250248Z 10003KT 19/12 A298 RMK A01 T01920123  RH  064%=      5-min Rain = 0
KLE1 250249Z 12003KT 19/13 A298 RMK A01 T01900126  RH  066%=      5-min Rain = 0
KLE1 250250Z 10002KT 19/12 A2981 RMK A01 T01890123  RH  065%=      5-min Rain = 0.01
KLE1 250251Z 12004KT 19/12 A2981 RMK A01 T01910122  RH  065%=      5-min Rain = 0
KLE1 250252Z 10004KT 19/13 A2981 RMK A01 T01920128  RH  066%=      5-min Rain = 0
KLE1 250253Z 08007KT 19/13 A2981 RMK A01 T01920128  RH  066%=      5-min Rain = 0
KLE1 250254Z 08012G17KT 19/14 A2981 RMK A01 T01900137  RH  071%=      5-min Rain = 0
KLE1 250255Z 08017KT 18/14 A2981 RMK A01 T01830136  RH  074%=      5-min Rain = 0.01
KLE1 250256Z 08015KT 18/14 A2981 RMK A01 T01760136  RH  078%=      5-min Rain = 0
KLE1 250257Z 09015KT 17/14 A2982 RMK A01 T01710137  RH  081%=      5-min Rain = 0
KLE1 250258Z 11014KT 17/14 A2982 RMK A01 T01700140  RH  083%=      5-min Rain = 0.01
KLE1 250259Z 11014KT 17/14 A2982 RMK A01 T01700139  RH  082%=      5-min Rain = 0
KLE1 250300Z 11015KT 17/14 A2982 RMK A01 T01720139  RH  081%=      5-min Rain = 0
KLE1 250301Z 12015KT 17/14 A2982 RMK A01 T01730138  RH  080%=      5-min Rain = 0.01
KLE1 250302Z 12014KT 17/14 A2982 RMK A01 T01730141  RH  082%=      5-min Rain = 0
KLE1 250303Z 12011KT 17/14 A2982 RMK A01 T01720139  RH  081%=      5-min Rain = 0
KLE1 250304Z 12009KT 17/14 A2982 RMK A01 T01720143  RH  083%=      5-min Rain = 0.01
KLE1 250305Z 13011KT 17/14 A2982 RMK A01 T01720143  RH  083%=      5-min Rain = 0
KLE1 250306Z 14011KT 17/14 A2982 RMK A01 T01710141  RH  082%=      5-min Rain = 0
KLE1 250307Z 14011KT 17/14 A2982 RMK A01 T01720143  RH  083%=      5-min Rain = 0
KLE1 250308Z 15012KT 17/15 A2982 RMK A01 T01720145  RH  084%=      5-min Rain = 0
KLE1 250309Z 15012KT 17/15 A2982 RMK A01 T01720145  RH  084%=      5-min Rain = 0
KLE1 250310Z 14011KT 17/15 A2982 RMK A01 T01710145  RH  085%=      5-min Rain = 0.01
KLE1 250311Z 13012KT 17/15 A2981 RMK A01 T01710145  RH  085%=      5-min Rain = 0
KLE1 250312Z 13012KT 17/14 A2981 RMK A01 T01700144  RH  084%=      5-min Rain = 0
KLE1 250313Z 13012KT 17/15 A2981 RMK A01 T01700146  RH  086%=      5-min Rain = 0
KLE1 250314Z 13011KT 17/15 A2981 RMK A01 T01700146  RH  086%=      5-min Rain = 0
KLE1 250315Z 13012KT 17/15 A2982 RMK A01 T01690146  RH  086%=      5-min Rain = 0
KLE1 250316Z 13010KT 17/15 A2982 RMK A01 T01680146  RH  087%=      5-min Rain = 0
KLE1 250317Z 13012KT 17/15 A2981 RMK A01 T01670146  RH  087%=      5-min Rain = 0
KLE1 250318Z 13012KT 17/14 A2981 RMK A01 T01660143  RH  086%=      5-min Rain = 0
KLE1 250319Z 13011KT 17/14 A2981 RMK A01 T01660143  RH  086%=      5-min Rain = 0
KLE1 250320Z 12010KT 17/15 A2981 RMK A01 T01670146  RH  087%=      5-min Rain = 0.01
KLE1 250321Z 12009KT 17/15 A2981 RMK A01 T01670147  RH  088%=      5-min Rain = 0
KLE1 250322Z 12008KT 17/15 A2981 RMK A01 T01670147  RH  088%=      5-min Rain = 0
KLE1 250323Z 11009KT 17/15 A2981 RMK A01 T01670149  RH  089%=      5-min Rain = 0.01
KLE1 250324Z 12009KT 17/15 A2981 RMK A01 T01680150  RH  089%=      5-min Rain = 0
KLE1 250325Z 13014KT 17/15 A2981 RMK A01 T01680151  RH  090%=      5-min Rain = 0
KLE1 250326Z 13011KT 17/15 A2982 RMK A01 T01680149  RH  088%=      5-min Rain = 0.01
KLE1 250327Z 13011KT 17/15 A2982 RMK A01 T01680148  RH  088%=      5-min Rain = 0
KLE1 250328Z 13009KT 17/15 A2982 RMK A01 T01690146  RH  086%=      5-min Rain = 0
KLE1 250329Z 14009KT 17/15 A2982 RMK A01 T01690148  RH  087%=      5-min Rain = 0
KLE1 250330Z 14011KT 17/15 A2982 RMK A01 T01690149  RH  088%=      5-min Rain = 0.01
KLE1 250331Z 14012KT 17/15 A2982 RMK A01 T01690150  RH  088%=      5-min Rain = 0
KLE1 250332Z 13011KT 17/15 A2982 RMK A01 T01690151  RH  089%=      5-min Rain = 0
KLE1 250333Z 12011KT 17/15 A2982 RMK A01 T01690151  RH  089%=      5-min Rain = 0
KLE1 250334Z 12011KT 17/15 A2982 RMK A01 T01690150  RH  088%=      5-min Rain = 0.01
KLE1 250335Z 11009KT 17/15 A2982 RMK A01 T01690150  RH  089%=      5-min Rain = 0
KLE1 250336Z 11011KT 17/15 A2982 RMK A01 T01680151  RH  089%=      5-min Rain = 0.01
KLE1 250337Z 10011KT 17/15 A2981 RMK A01 T01680151  RH  089%=      5-min Rain = 0
KLE1 250338Z 09011KT 17/15 A2981 RMK A01 T01680152  RH  090%=      5-min Rain = 0.01
KLE1 250339Z 08013KT 17/15 A2981 RMK A01 T01680153  RH  091%=      5-min Rain = 0
KLE1 250340Z 08015KT 17/15 A2981 RMK A01 T01680152  RH  090%=      5-min Rain = 0.01
KLE1 250341Z 06015KT 17/15 A2981 RMK A01 T01680152  RH  090%=      5-min Rain = 0
KLE1 250342Z 07017KT 17/15 A2981 RMK A01 T01680151  RH  090%=      5-min Rain = 0
KLE1 250343Z 07015KT 17/15 A2981 RMK A01 T01650149  RH  090%=      5-min Rain = 0
KLE1 250344Z 08017KT 16/15 A298 RMK A01 T01640148  RH  090%=      5-min Rain = 0.01
KLE1 250345Z 07018KT 17/15 A298 RMK A01 T01650147  RH  089%=      5-min Rain = 0
KLE1 250346Z 07018KT 17/15 A298 RMK A01 T01660147  RH  089%=      5-min Rain = 0
KLE1 250347Z 06020KT 17/15 A2979 RMK A01 T01660148  RH  089%=      5-min Rain = 0
KLE1 250348Z 05021KT 17/15 A2979 RMK A01 T01660148  RH  089%=      5-min Rain = 0
KLE1 250349Z 06021KT 17/15 A2979 RMK A01 T01660148  RH  089%=      5-min Rain = 0.01
KLE1 250350Z 06020KT 16/15 A2979 RMK A01 T01640147  RH  090%=      5-min Rain = 0
KLE1 250351Z 07021KT 16/15 A2978 RMK A01 T01630147  RH  090%=      5-min Rain = 0
KLE1 250352Z 06021KT 16/15 A2978 RMK A01 T01630146  RH  090%=      5-min Rain = 0
KLE1 250353Z 06024KT 16/15 A2977 RMK A01 T01630146  RH  090%=      5-min Rain = 0
KLE1 250354Z 07025KT 16/14 A2976 RMK A01 T01610144  RH  090%=      5-min Rain = 0.01
KLE1 250355Z 07025G32KT 16/14 A2975 RMK A01 T01600144  RH  090%=      5-min Rain = 0
KLE1 250356Z 07023G28KT 16/14 A2975 RMK A01 T01600143  RH  089%=      5-min Rain = 0.01
KLE1 250357Z 07032KT 16/14 A2974 RMK A01 T01600143  RH  089%=      5-min Rain = 0
KLE1 250358Z 07034KT 16/14 A2973 RMK A01 T01600142  RH  089%=      5-min Rain = 0
KLE1 250359Z 06032KT 16/14 A2973 RMK A01 T01580143  RH  090%=      5-min Rain = 0.01
KLE1 250400Z 06031KT 16/14 A2973 RMK A01 T01580143  RH  091%=      5-min Rain = 0
KLE1 250401Z 07034KT 16/14 A2972 RMK A01 T01580143  RH  091%=      5-min Rain = 0.01
KLE1 250402Z 07036G41KT 16/14 A297 RMK A01 T01580143  RH  091%=      5-min Rain = 0
KLE1 250403Z 07032KT 16/14 A297 RMK A01 T01580143  RH  091%=      5-min Rain = 0
KLE1 250404Z 06028KT 16/14 A2972 RMK A01 T01570142  RH  091%=      5-min Rain = 0.01
KLE1 250405Z 06027G33KT 16/14 A2973 RMK A01 T01570143  RH  091%=      5-min Rain = 0
KLE1 250406Z 06029KT 16/14 A2972 RMK A01 T01570142  RH  091%=      5-min Rain = 0
KLE1 250407Z 06033G38KT 16/14 A2971 RMK A01 T01580141  RH  090%=      5-min Rain = 0
KLE1 250408Z 06034KT 16/14 A2971 RMK A01 T01590141  RH  089%=      5-min Rain = 0
KLE1 250409Z 06033KT 16/14 A2971 RMK A01 T01590142  RH  089%=      5-min Rain = 0
KLE1 250410Z 05031G36KT 16/14 A2971 RMK A01 T01600141  RH  089%=      5-min Rain = 0.01
KLE1 250411Z 05031KT 16/14 A2971 RMK A01 T01590141  RH  089%=      5-min Rain = 0
KLE1 250412Z 06033KT 16/14 A297 RMK A01 T01600141  RH  089%=      5-min Rain = 0
KLE1 250413Z 06034KT 16/14 A2969 RMK A01 T01610140  RH  087%=      5-min Rain = 0
KLE1 250414Z 06030G36KT 16/14 A2969 RMK A01 T01630139  RH  086%=      5-min Rain = 0
KLE1 250415Z 06031KT 16/14 A2968 RMK A01 T01640138  RH  085%=      5-min Rain = 0
KLE1 250416Z 06032G37KT 17/14 A2968 RMK A01 T01670137  RH  082%=      5-min Rain = 0.01
KLE1 250417Z 06027KT 17/14 A2968 RMK A01 T01700137  RH  081%=      5-min Rain = 0
KLE1 250418Z 05033KT 17/14 A2968 RMK A01 T01700137  RH  081%=      5-min Rain = 0
KLE1 250419Z 06030G35KT 17/14 A2968 RMK A01 T01690138  RH  082%=      5-min Rain = 0
KLE1 250420Z 06028G33KT 17/14 A2968 RMK A01 T01670139  RH  084%=      5-min Rain = 0
KLE1 250421Z 06034G39KT 17/14 A2967 RMK A01 T01660139  RH  084%=      5-min Rain = 0
KLE1 250422Z 06034G39KT 17/14 A2967 RMK A01 T01660140  RH  084%=      5-min Rain = 0
KLE1 250423Z 06034G39KT 17/14 A2967 RMK A01 T01660140  RH  085%=      5-min Rain = 0
KLE1 250424Z 06034G39KT 17/14 A2967 RMK A01 T01660138  RH  083%=      5-min Rain = 0
KLE1 250425Z 06033KT 17/14 A2967 RMK A01 T01670138  RH  083%=      5-min Rain = 0.01
KLE1 250426Z 06031G37KT 17/14 A2967 RMK A01 T01680138  RH  082%=      5-min Rain = 0
KLE1 250427Z 06032KT 17/14 A2967 RMK A01 T01680138  RH  082%=      5-min Rain = 0
KLE1 250428Z 06032G37KT 17/14 A2967 RMK A01 T01690137  RH  081%=      5-min Rain = 0
KLE1 250429Z 06038G43KT 17/14 A2967 RMK A01 T01690137  RH  081%=      5-min Rain = 0
KLE1 250430Z 06036KT 17/14 A2967 RMK A01 T01670140  RH  084%=      5-min Rain = 0
KLE1 250431Z 07033G41KT 16/14 A2966 RMK A01 T01640139  RH  085%=      5-min Rain = 0
KLE1 250432Z 07036G43KT 16/14 A2966 RMK A01 T01640138  RH  084%=      5-min Rain = 0
KLE1 250433Z 06034KT 17/14 A2966 RMK A01 T01660136  RH  082%=      5-min Rain = 0
KLE1 250434Z 06035KT 17/14 A2966 RMK A01 T01690135  RH  081%=      5-min Rain = 0
KLE1 250435Z 06032KT 17/14 A2967 RMK A01 T01690137  RH  081%=      5-min Rain = 0
KLE1 250436Z 06033G38KT 17/14 A2967 RMK A01 T01680138  RH  082%=      5-min Rain = 0
KLE1 250437Z 07035KT 17/14 A2967 RMK A01 T01670137  RH  082%=      5-min Rain = 0
KLE1 250438Z 07031G36KT 17/14 A2967 RMK A01 T01670138  RH  083%=      5-min Rain = 0
KLE1 250439Z 07033G39KT 16/14 A2966 RMK A01 T01640140  RH  086%=      5-min Rain = 0
KLE1 250440Z 07035KT 16/14 A2967 RMK A01 T01620141  RH  087%=      5-min Rain = 0
KLE1 250441Z 07033G40KT 16/14 A2967 RMK A01 T01610141  RH  088%=      5-min Rain = 0
KLE1 250442Z 07038G45KT 16/14 A2966 RMK A01 T01600142  RH  089%=      5-min Rain = 0
KLE1 250443Z 06037G43KT 16/14 A2966 RMK A01 T01590142  RH  089%=      5-min Rain = 0
KLE1 250444Z 06037G43KT 16/14 A2966 RMK A01 T01590142  RH  090%=      5-min Rain = 0
KLE1 250445Z 07038G45KT 16/14 A2967 RMK A01 T01590141  RH  089%=      5-min Rain = 0
KLE1 250446Z 07035G40KT 16/14 A2967 RMK A01 T01600141  RH  089%=      5-min Rain = 0
KLE1 250447Z 08037G43KT 16/14 A2967 RMK A01 T01600142  RH  089%=      5-min Rain = 0
KLE1 250448Z 08034G41KT 16/14 A2968 RMK A01 T01600142  RH  089%=      5-min Rain = 0
KLE1 250449Z 07034KT 16/14 A2969 RMK A01 T01600141  RH  088%=      5-min Rain = 0
KLE1 250450Z 07031G38KT 16/14 A297 RMK A01 T01610140  RH  087%=      5-min Rain = 0
KLE1 250451Z 07033G40KT 16/14 A2971 RMK A01 T01620140  RH  087%=      5-min Rain = 0
KLE1 250452Z 08033G39KT 16/14 A2972 RMK A01 T01630139  RH  086%=      5-min Rain = 0
KLE1 250453Z 08025G31KT 16/14 A2973 RMK A01 T01640140  RH  086%=      5-min Rain = 0
KLE1 250454Z 08025G31KT 16/14 A2974 RMK A01 T01630142  RH  087%=      5-min Rain = 0
KLE1 250455Z 08023KT 16/14 A2973 RMK A01 T01620142  RH  088%=      5-min Rain = 0
KLE1 250456Z 08033G39KT 16/14 A2972 RMK A01 T01600142  RH  089%=      5-min Rain = 0
KLE1 250457Z 08033KT 16/14 A2972 RMK A01 T01600143  RH  090%=      5-min Rain = 0
KLE1 250458Z 09032G37KT 16/14 A2973 RMK A01 T01590143  RH  090%=      5-min Rain = 0
KLE1 250459Z 10030KT 16/14 A2972 RMK A01 T01590144  RH  091%=      5-min Rain = 0

Page generated in 0.1457 seconds.